PWSweather.com
Personal Weather Stations
Station Observations
KOHREFORM1
Reform, Ohio, Newark, OH 43055

Reform, OhioNewark, OH 43055

Lat: 40.1502, Lon: -82.2417

Elevation: 1043

Station Type: Davis Vantage Pro 2 Plus

randysweatheronthehill.com

High Low Average
Temperature 43.1°F6.2°C 26.1°F-3.3°C 33.2°F0.7°C
Dew Point 25.0°F-3.9°C 19.8°F-6.8°C 22.4°F-5.3°C
Winds 21.0 mph 33.8 kmh Calm Calm 3.0 mph WSW4.8 kmh WSW
Wind Gusts 24.0 mph38.6 kmh 3.0 mph4.8 kmh 11.0 mph17.7 kmh
Humidity 80% 44% 65%
Pressure 30.13 in1020.3 mb 30.02 in1016.6 mb -
Precipitation 0.00 in0.0 mm - -
Hour Temp Dew Point Humidity Winds Wind Gusts Pressure Precip Precip Rate Daily Precip Total
12:01 AM 29.1°F-1.6°C 20.2°F-6.6°C 69% 3.0 mph WSW4.8 kmh WSW 10.0 mph16.1 kmh 30.10 in1019.3 mb 0.00 in0.0 mm 0.00 in0.0 mm 0.00 in0.0 mm
12:03 AM 29.0°F-1.7°C 20.1°F-6.6°C 69% 2.0 mph W3.2 kmh W 10.0 mph16.1 kmh 30.10 in1019.3 mb 0.00 in0.0 mm 0.00 in0.0 mm 0.00 in0.0 mm
12:05 AM 29.0°F-1.7°C 20.1°F-6.6°C 69% 2.0 mph W3.2 kmh W 10.0 mph16.1 kmh 30.10 in1019.3 mb 0.00 in0.0 mm 0.00 in0.0 mm 0.00 in0.0 mm
12:07 AM 29.0°F-1.7°C 20.5°F-6.4°C 70% 3.0 mph SW4.8 kmh SW 8.0 mph12.9 kmh 30.10 in1019.3 mb 0.00 in0.0 mm 0.00 in0.0 mm 0.00 in0.0 mm
12:09 AM 29.0°F-1.7°C 20.1°F-6.6°C 69% 7.0 mph SSW11.3 kmh SSW 8.0 mph12.9 kmh 30.11 in1019.6 mb 0.00 in0.0 mm 0.00 in0.0 mm 0.00 in0.0 mm
12:11 AM 29.0°F-1.7°C 20.1°F-6.6°C 69% 7.0 mph W11.3 kmh W 8.0 mph12.9 kmh 30.11 in1019.6 mb 0.00 in0.0 mm 0.00 in0.0 mm 0.00 in0.0 mm
12:13 AM 29.0°F-1.7°C 20.1°F-6.6°C 69% 1.0 mph W1.6 kmh W 8.0 mph12.9 kmh 30.11 in1019.6 mb 0.00 in0.0 mm 0.00 in0.0 mm 0.00 in0.0 mm
12:15 AM 29.0°F-1.7°C 20.1°F-6.6°C 69% 1.0 mph WSW1.6 kmh WSW 8.0 mph12.9 kmh 30.10 in1019.3 mb 0.00 in0.0 mm 0.00 in0.0 mm 0.00 in0.0 mm
12:17 AM 29.0°F-1.7°C 20.5°F-6.4°C 70% 1.0 mph WSW1.6 kmh WSW 8.0 mph12.9 kmh 30.11 in1019.6 mb 0.00 in0.0 mm 0.00 in0.0 mm 0.00 in0.0 mm
12:19 AM 28.9°F-1.7°C 20.0°F-6.7°C 69% 7.0 mph W11.3 kmh W 8.0 mph12.9 kmh 30.11 in1019.6 mb 0.00 in0.0 mm 0.00 in0.0 mm 0.00 in0.0 mm
12:21 AM 28.9°F-1.7°C 20.0°F-6.7°C 69% 1.0 mph W1.6 kmh W 8.0 mph12.9 kmh 30.11 in1019.6 mb 0.00 in0.0 mm 0.00 in0.0 mm 0.00 in0.0 mm
12:23 AM 28.9°F-1.7°C 20.0°F-6.7°C 69% 1.0 mph WSW1.6 kmh WSW 8.0 mph12.9 kmh 30.11 in1019.6 mb 0.00 in0.0 mm 0.00 in0.0 mm 0.00 in0.0 mm
12:25 AM 28.9°F-1.7°C 20.0°F-6.7°C 69% 2.0 mph WSW3.2 kmh WSW 8.0 mph12.9 kmh 30.11 in1019.6 mb 0.00 in0.0 mm 0.00 in0.0 mm 0.00 in0.0 mm
12:27 AM 28.9°F-1.7°C 20.4°F-6.4°C 70% 2.0 mph W3.2 kmh W 7.0 mph11.3 kmh 30.11 in1019.6 mb 0.00 in0.0 mm 0.00 in0.0 mm 0.00 in0.0 mm
12:29 AM 28.9°F-1.7°C 20.0°F-6.7°C 69% 2.0 mph W3.2 kmh W 7.0 mph11.3 kmh 30.10 in1019.3 mb 0.00 in0.0 mm 0.00 in0.0 mm 0.00 in0.0 mm
12:31 AM 28.9°F-1.7°C 20.0°F-6.7°C 69% 1.0 mph SW1.6 kmh SW 7.0 mph11.3 kmh 30.10 in1019.3 mb 0.00 in0.0 mm 0.00 in0.0 mm 0.00 in0.0 mm
12:33 AM 28.9°F-1.7°C 20.0°F-6.7°C 69% 3.0 mph W4.8 kmh W 7.0 mph11.3 kmh 30.11 in1019.6 mb 0.00 in0.0 mm 0.00 in0.0 mm 0.00 in0.0 mm
12:35 AM 28.9°F-1.7°C 20.0°F-6.7°C 69% 1.0 mph SW1.6 kmh SW 9.0 mph14.5 kmh 30.11 in1019.6 mb 0.00 in0.0 mm 0.00 in0.0 mm 0.00 in0.0 mm
12:37 AM 28.9°F-1.7°C 20.4°F-6.4°C 70% 5.0 mph WSW8.0 kmh WSW 9.0 mph14.5 kmh 30.10 in1019.3 mb 0.00 in0.0 mm 0.00 in0.0 mm 0.00 in0.0 mm
12:39 AM 28.9°F-1.7°C 20.0°F-6.7°C 69% 3.0 mph SW4.8 kmh SW 9.0 mph14.5 kmh 30.11 in1019.6 mb 0.00 in0.0 mm 0.00 in0.0 mm 0.00 in0.0 mm
12:41 AM 29.0°F-1.7°C 20.1°F-6.6°C 69% 7.0 mph WSW11.3 kmh WSW 9.0 mph14.5 kmh 30.11 in1019.6 mb 0.00 in0.0 mm 0.00 in0.0 mm 0.00 in0.0 mm
12:43 AM 29.0°F-1.7°C 20.1°F-6.6°C 69% 3.0 mph NE4.8 kmh NE 9.0 mph14.5 kmh 30.10 in1019.3 mb 0.00 in0.0 mm 0.00 in0.0 mm 0.00 in0.0 mm
12:45 AM 29.0°F-1.7°C 20.1°F-6.6°C 69% 2.0 mph W3.2 kmh W 9.0 mph14.5 kmh 30.10 in1019.3 mb 0.00 in0.0 mm 0.00 in0.0 mm 0.00 in0.0 mm
12:47 AM 29.0°F-1.7°C 20.1°F-6.6°C 69% 2.0 mph W3.2 kmh W 9.0 mph14.5 kmh 30.10 in1019.3 mb 0.00 in0.0 mm 0.00 in0.0 mm 0.00 in0.0 mm
12:49 AM 29.0°F-1.7°C 20.1°F-6.6°C 69% 1.0 mph W1.6 kmh W 9.0 mph14.5 kmh 30.10 in1019.3 mb 0.00 in0.0 mm 0.00 in0.0 mm 0.00 in0.0 mm
12:51 AM 28.9°F-1.7°C 20.0°F-6.7°C 69% 4.0 mph NW6.4 kmh NW 9.0 mph14.5 kmh 30.11 in1019.6 mb 0.00 in0.0 mm 0.00 in0.0 mm 0.00 in0.0 mm
12:53 AM 28.9°F-1.7°C 20.0°F-6.7°C 69% Calm Calm 9.0 mph14.5 kmh 30.11 in1019.6 mb 0.00 in0.0 mm 0.00 in0.0 mm 0.00 in0.0 mm
12:55 AM 28.9°F-1.7°C 20.0°F-6.7°C 69% 1.0 mph SW1.6 kmh SW 8.0 mph12.9 kmh 30.10 in1019.3 mb 0.00 in0.0 mm 0.00 in0.0 mm 0.00 in0.0 mm
12:57 AM 28.9°F-1.7°C 20.4°F-6.4°C 70% 1.0 mph SW1.6 kmh SW 8.0 mph12.9 kmh 30.11 in1019.6 mb 0.00 in0.0 mm 0.00 in0.0 mm 0.00 in0.0 mm
12:59 AM 28.8°F-1.8°C 20.3°F-6.5°C 70% 2.0 mph SW3.2 kmh SW 8.0 mph12.9 kmh 30.11 in1019.6 mb 0.00 in0.0 mm 0.00 in0.0 mm 0.00 in0.0 mm
01:01 AM 28.7°F-1.8°C 20.2°F-6.6°C 70% 3.0 mph WSW4.8 kmh WSW 8.0 mph12.9 kmh 30.11 in1019.6 mb 0.00 in0.0 mm 0.00 in0.0 mm 0.00 in0.0 mm
01:03 AM 28.7°F-1.8°C 20.2°F-6.6°C 70% 2.0 mph W3.2 kmh W 8.0 mph12.9 kmh 30.11 in1019.6 mb 0.00 in0.0 mm 0.00 in0.0 mm 0.00 in0.0 mm
01:05 AM 28.7°F-1.8°C 19.8°F-6.8°C 69% 2.0 mph SW3.2 kmh SW 6.0 mph9.7 kmh 30.11 in1019.6 mb 0.00 in0.0 mm 0.00 in0.0 mm 0.00 in0.0 mm
01:07 AM 28.7°F-1.8°C 19.8°F-6.8°C 69% 2.0 mph WSW3.2 kmh WSW 6.0 mph9.7 kmh 30.11 in1019.6 mb 0.00 in0.0 mm 0.00 in0.0 mm 0.00 in0.0 mm
01:09 AM 28.6°F-1.9°C 20.1°F-6.6°C 70% 1.0 mph SW1.6 kmh SW 6.0 mph9.7 kmh 30.11 in1019.6 mb 0.00 in0.0 mm 0.00 in0.0 mm 0.00 in0.0 mm
01:11 AM 28.6°F-1.9°C 20.4°F-6.4°C 71% Calm Calm 6.0 mph9.7 kmh 30.11 in1019.6 mb 0.00 in0.0 mm 0.00 in0.0 mm 0.00 in0.0 mm
01:13 AM 28.5°F-1.9°C 20.3°F-6.5°C 71% 7.0 mph WSW11.3 kmh WSW 7.0 mph11.3 kmh 30.11 in1019.6 mb 0.00 in0.0 mm 0.00 in0.0 mm 0.00 in0.0 mm
01:15 AM 28.4°F-2.0°C 20.2°F-6.6°C 71% 1.0 mph SW1.6 kmh SW 7.0 mph11.3 kmh 30.11 in1019.6 mb 0.00 in0.0 mm 0.00 in0.0 mm 0.00 in0.0 mm
01:17 AM 28.3°F-2.1°C 20.1°F-6.6°C 71% 1.0 mph SW1.6 kmh SW 7.0 mph11.3 kmh 30.11 in1019.6 mb 0.00 in0.0 mm 0.00 in0.0 mm 0.00 in0.0 mm
01:19 AM 28.3°F-2.1°C 20.1°F-6.6°C 71% 4.0 mph W6.4 kmh W 7.0 mph11.3 kmh 30.11 in1019.6 mb 0.00 in0.0 mm 0.00 in0.0 mm 0.00 in0.0 mm
01:21 AM 28.2°F-2.1°C 20.0°F-6.7°C 71% 4.0 mph SW6.4 kmh SW 7.0 mph11.3 kmh 30.11 in1019.6 mb 0.00 in0.0 mm 0.00 in0.0 mm 0.00 in0.0 mm
01:23 AM 28.1°F-2.2°C 19.9°F-6.7°C 71% 3.0 mph SSW4.8 kmh SSW 7.0 mph11.3 kmh 30.11 in1019.6 mb 0.00 in0.0 mm 0.00 in0.0 mm 0.00 in0.0 mm
01:25 AM 28.1°F-2.2°C 19.9°F-6.7°C 71% 2.0 mph SW3.2 kmh SW 7.0 mph11.3 kmh 30.11 in1019.6 mb 0.00 in0.0 mm 0.00 in0.0 mm 0.00 in0.0 mm
01:27 AM 28.1°F-2.2°C 19.9°F-6.7°C 71% 2.0 mph SW3.2 kmh SW 7.0 mph11.3 kmh 30.11 in1019.6 mb 0.00 in0.0 mm 0.00 in0.0 mm 0.00 in0.0 mm
01:29 AM 28.1°F-2.2°C 19.9°F-6.7°C 71% 2.0 mph W3.2 kmh W 7.0 mph11.3 kmh 30.11 in1019.6 mb 0.00 in0.0 mm 0.00 in0.0 mm 0.00 in0.0 mm
01:31 AM 28.0°F-2.2°C 20.2°F-6.6°C 72% 2.0 mph WSW3.2 kmh WSW 7.0 mph11.3 kmh 30.11 in1019.6 mb 0.00 in0.0 mm 0.00 in0.0 mm 0.00 in0.0 mm
01:33 AM 28.0°F-2.2°C 20.2°F-6.6°C 72% 4.0 mph WSW6.4 kmh WSW 7.0 mph11.3 kmh 30.11 in1019.6 mb 0.00 in0.0 mm 0.00 in0.0 mm 0.00 in0.0 mm
01:35 AM 28.0°F-2.2°C 20.2°F-6.6°C 72% 2.0 mph WSW3.2 kmh WSW 7.0 mph11.3 kmh 30.11 in1019.6 mb 0.00 in0.0 mm 0.00 in0.0 mm 0.00 in0.0 mm
01:37 AM 27.9°F-2.3°C 20.1°F-6.6°C 72% 1.0 mph WSW1.6 kmh WSW 7.0 mph11.3 kmh 30.11 in1019.6 mb 0.00 in0.0 mm 0.00 in0.0 mm 0.00 in0.0 mm
01:39 AM 27.9°F-2.3°C 20.1°F-6.6°C 72% 1.0 mph SW1.6 kmh SW 7.0 mph11.3 kmh 30.11 in1019.6 mb 0.00 in0.0 mm 0.00 in0.0 mm 0.00 in0.0 mm
01:41 AM 27.9°F-2.3°C 20.1°F-6.6°C 72% 1.0 mph W1.6 kmh W 7.0 mph11.3 kmh 30.11 in1019.6 mb 0.00 in0.0 mm 0.00 in0.0 mm 0.00 in0.0 mm
01:43 AM 27.9°F-2.3°C 20.4°F-6.4°C 73% 2.0 mph W3.2 kmh W 7.0 mph11.3 kmh 30.11 in1019.6 mb 0.00 in0.0 mm 0.00 in0.0 mm 0.00 in0.0 mm
01:45 AM 27.8°F-2.3°C 20.0°F-6.7°C 72% 1.0 mph WNW1.6 kmh WNW 7.0 mph11.3 kmh 30.11 in1019.6 mb 0.00 in0.0 mm 0.00 in0.0 mm 0.00 in0.0 mm
01:47 AM 27.8°F-2.3°C 20.3°F-6.5°C 73% 5.0 mph SE8.0 kmh SE 8.0 mph12.9 kmh 30.11 in1019.6 mb 0.00 in0.0 mm 0.00 in0.0 mm 0.00 in0.0 mm
01:49 AM 27.8°F-2.3°C 20.3°F-6.5°C 73% Calm Calm 8.0 mph12.9 kmh 30.11 in1019.6 mb 0.00 in0.0 mm 0.00 in0.0 mm 0.00 in0.0 mm
01:51 AM 27.8°F-2.3°C 20.3°F-6.5°C 73% 1.0 mph S1.6 kmh S 8.0 mph12.9 kmh 30.11 in1019.6 mb 0.00 in0.0 mm 0.00 in0.0 mm 0.00 in0.0 mm
01:53 AM 27.7°F-2.4°C 20.2°F-6.6°C 73% 2.0 mph W3.2 kmh W 8.0 mph12.9 kmh 30.11 in1019.6 mb 0.00 in0.0 mm 0.00 in0.0 mm 0.00 in0.0 mm
01:55 AM 27.6°F-2.4°C 20.4°F-6.4°C 74% 2.0 mph WSW3.2 kmh WSW 8.0 mph12.9 kmh 30.11 in1019.6 mb 0.00 in0.0 mm 0.00 in0.0 mm 0.00 in0.0 mm
01:57 AM 27.6°F-2.4°C 20.4°F-6.4°C 74% 1.0 mph SSW1.6 kmh SSW 8.0 mph12.9 kmh 30.11 in1019.6 mb 0.00 in0.0 mm 0.00 in0.0 mm 0.00 in0.0 mm
01:59 AM 27.6°F-2.4°C 20.4°F-6.4°C 74% 1.0 mph W1.6 kmh W 8.0 mph12.9 kmh 30.11 in1019.6 mb 0.00 in0.0 mm 0.00 in0.0 mm 0.00 in0.0 mm
02:01 AM 27.5°F-2.5°C 20.3°F-6.5°C 74% 3.0 mph W4.8 kmh W 8.0 mph12.9 kmh 30.11 in1019.6 mb 0.00 in0.0 mm 0.00 in0.0 mm 0.00 in0.0 mm
02:03 AM 27.5°F-2.5°C 20.3°F-6.5°C 74% 1.0 mph WNW1.6 kmh WNW 8.0 mph12.9 kmh 30.11 in1019.6 mb 0.00 in0.0 mm 0.00 in0.0 mm 0.00 in0.0 mm
02:05 AM 27.5°F-2.5°C 20.3°F-6.5°C 74% 6.0 mph SSW9.7 kmh SSW 8.0 mph12.9 kmh 30.11 in1019.6 mb 0.00 in0.0 mm 0.00 in0.0 mm 0.00 in0.0 mm
02:07 AM 27.5°F-2.5°C 20.3°F-6.5°C 74% 2.0 mph W3.2 kmh W 6.0 mph9.7 kmh 30.12 in1020.0 mb 0.00 in0.0 mm 0.00 in0.0 mm 0.00 in0.0 mm
02:09 AM 27.5°F-2.5°C 20.6°F-6.3°C 75% 7.0 mph WSW11.3 kmh WSW 7.0 mph11.3 kmh 30.12 in1020.0 mb 0.00 in0.0 mm 0.00 in0.0 mm 0.00 in0.0 mm
02:11 AM 27.4°F-2.6°C 20.2°F-6.6°C 74% 1.0 mph WSW1.6 kmh WSW 7.0 mph11.3 kmh 30.12 in1020.0 mb 0.00 in0.0 mm 0.00 in0.0 mm 0.00 in0.0 mm
02:13 AM 27.4°F-2.6°C 20.2°F-6.6°C 74% 2.0 mph WSW3.2 kmh WSW 7.0 mph11.3 kmh 30.12 in1020.0 mb 0.00 in0.0 mm 0.00 in0.0 mm 0.00 in0.0 mm
02:15 AM 27.4°F-2.6°C 20.5°F-6.4°C 75% 2.0 mph WSW3.2 kmh WSW 7.0 mph11.3 kmh 30.12 in1020.0 mb 0.00 in0.0 mm 0.00 in0.0 mm 0.00 in0.0 mm
02:17 AM 27.3°F-2.6°C 20.4°F-6.4°C 75% 2.0 mph WNW3.2 kmh WNW 7.0 mph11.3 kmh 30.12 in1020.0 mb 0.00 in0.0 mm 0.00 in0.0 mm 0.00 in0.0 mm
02:19 AM 27.3°F-2.6°C 20.4°F-6.4°C 75% 2.0 mph WSW3.2 kmh WSW 7.0 mph11.3 kmh 30.12 in1020.0 mb 0.00 in0.0 mm 0.00 in0.0 mm 0.00 in0.0 mm
02:21 AM 27.3°F-2.6°C 20.4°F-6.4°C 75% Calm Calm 7.0 mph11.3 kmh 30.12 in1020.0 mb 0.00 in0.0 mm 0.00 in0.0 mm 0.00 in0.0 mm
02:23 AM 27.2°F-2.7°C 20.3°F-6.5°C 75% 2.0 mph W3.2 kmh W 7.0 mph11.3 kmh 30.12 in1020.0 mb 0.00 in0.0 mm 0.00 in0.0 mm 0.00 in0.0 mm
02:25 AM 27.2°F-2.7°C 20.3°F-6.5°C 75% 2.0 mph WSW3.2 kmh WSW 7.0 mph11.3 kmh 30.12 in1020.0 mb 0.00 in0.0 mm 0.00 in0.0 mm 0.00 in0.0 mm
02:27 AM 27.2°F-2.7°C 20.3°F-6.5°C 75% 2.0 mph WSW3.2 kmh WSW 8.0 mph12.9 kmh 30.12 in1020.0 mb 0.00 in0.0 mm 0.00 in0.0 mm 0.00 in0.0 mm
02:29 AM 27.2°F-2.7°C 20.3°F-6.5°C 75% 4.0 mph W6.4 kmh W 8.0 mph12.9 kmh 30.12 in1020.0 mb 0.00 in0.0 mm 0.00 in0.0 mm 0.00 in0.0 mm
02:31 AM 27.3°F-2.6°C 20.4°F-6.4°C 75% 2.0 mph WSW3.2 kmh WSW 8.0 mph12.9 kmh 30.12 in1020.0 mb 0.00 in0.0 mm 0.00 in0.0 mm 0.00 in0.0 mm
02:33 AM 27.2°F-2.7°C 20.3°F-6.5°C 75% 2.0 mph WSW3.2 kmh WSW 8.0 mph12.9 kmh 30.13 in1020.3 mb 0.00 in0.0 mm 0.00 in0.0 mm 0.00 in0.0 mm
02:35 AM 27.2°F-2.7°C 20.3°F-6.5°C 75% 4.0 mph WSW6.4 kmh WSW 8.0 mph12.9 kmh 30.13 in1020.3 mb 0.00 in0.0 mm 0.00 in0.0 mm 0.00 in0.0 mm
02:37 AM 27.3°F-2.6°C 20.4°F-6.4°C 75% 3.0 mph WSW4.8 kmh WSW 8.0 mph12.9 kmh 30.13 in1020.3 mb 0.00 in0.0 mm 0.00 in0.0 mm 0.00 in0.0 mm
02:39 AM 27.3°F-2.6°C 20.4°F-6.4°C 75% 2.0 mph WSW3.2 kmh WSW 8.0 mph12.9 kmh 30.13 in1020.3 mb 0.00 in0.0 mm 0.00 in0.0 mm 0.00 in0.0 mm
02:41 AM 27.3°F-2.6°C 20.4°F-6.4°C 75% 2.0 mph WSW3.2 kmh WSW 8.0 mph12.9 kmh 30.13 in1020.3 mb 0.00 in0.0 mm 0.00 in0.0 mm 0.00 in0.0 mm
02:43 AM 27.3°F-2.6°C 20.4°F-6.4°C 75% 1.0 mph WSW1.6 kmh WSW 8.0 mph12.9 kmh 30.13 in1020.3 mb 0.00 in0.0 mm 0.00 in0.0 mm 0.00 in0.0 mm
02:45 AM 27.3°F-2.6°C 20.4°F-6.4°C 75% Calm Calm 8.0 mph12.9 kmh 30.13 in1020.3 mb 0.00 in0.0 mm 0.00 in0.0 mm 0.00 in0.0 mm
02:47 AM 27.2°F-2.7°C 20.3°F-6.5°C 75% 1.0 mph SW1.6 kmh SW 8.0 mph12.9 kmh 30.13 in1020.3 mb 0.00 in0.0 mm 0.00 in0.0 mm 0.00 in0.0 mm
02:49 AM 27.2°F-2.7°C 20.3°F-6.5°C 75% 1.0 mph SW1.6 kmh SW 8.0 mph12.9 kmh 30.13 in1020.3 mb 0.00 in0.0 mm 0.00 in0.0 mm 0.00 in0.0 mm
02:51 AM 27.1°F-2.7°C 20.2°F-6.6°C 75% 1.0 mph SW1.6 kmh SW 8.0 mph12.9 kmh 30.13 in1020.3 mb 0.00 in0.0 mm 0.00 in0.0 mm 0.00 in0.0 mm
02:53 AM 27.0°F-2.8°C 20.5°F-6.4°C 76% 1.0 mph SW1.6 kmh SW 8.0 mph12.9 kmh 30.13 in1020.3 mb 0.00 in0.0 mm 0.00 in0.0 mm 0.00 in0.0 mm
02:55 AM 27.0°F-2.8°C 20.5°F-6.4°C 76% 1.0 mph SW1.6 kmh SW 8.0 mph12.9 kmh 30.13 in1020.3 mb 0.00 in0.0 mm 0.00 in0.0 mm 0.00 in0.0 mm
02:57 AM 26.9°F-2.8°C 20.4°F-6.4°C 76% 1.0 mph WNW1.6 kmh WNW 3.0 mph4.8 kmh 30.13 in1020.3 mb 0.00 in0.0 mm 0.00 in0.0 mm 0.00 in0.0 mm
02:59 AM 26.8°F-2.9°C 20.3°F-6.5°C 76% 1.0 mph WSW1.6 kmh WSW 6.0 mph9.7 kmh 30.13 in1020.3 mb 0.00 in0.0 mm 0.00 in0.0 mm 0.00 in0.0 mm
03:01 AM 26.8°F-2.9°C 20.3°F-6.5°C 76% 2.0 mph WSW3.2 kmh WSW 6.0 mph9.7 kmh 30.12 in1020.0 mb 0.00 in0.0 mm 0.00 in0.0 mm 0.00 in0.0 mm
03:03 AM 26.7°F-2.9°C 20.2°F-6.6°C 76% 3.0 mph WSW4.8 kmh WSW 7.0 mph11.3 kmh 30.13 in1020.3 mb 0.00 in0.0 mm 0.00 in0.0 mm 0.00 in0.0 mm
03:05 AM 26.7°F-2.9°C 20.5°F-6.4°C 77% 2.0 mph SW3.2 kmh SW 7.0 mph11.3 kmh 30.13 in1020.3 mb 0.00 in0.0 mm 0.00 in0.0 mm 0.00 in0.0 mm
03:07 AM 26.6°F-3.0°C 20.4°F-6.4°C 77% 6.0 mph SSW9.7 kmh SSW 7.0 mph11.3 kmh 30.13 in1020.3 mb 0.00 in0.0 mm 0.00 in0.0 mm 0.00 in0.0 mm
03:09 AM 26.6°F-3.0°C 20.4°F-6.4°C 77% 1.0 mph W1.6 kmh W 7.0 mph11.3 kmh 30.13 in1020.3 mb 0.00 in0.0 mm 0.00 in0.0 mm 0.00 in0.0 mm
03:11 AM 26.6°F-3.0°C 20.4°F-6.4°C 77% 1.0 mph SW1.6 kmh SW 7.0 mph11.3 kmh 30.13 in1020.3 mb 0.00 in0.0 mm 0.00 in0.0 mm 0.00 in0.0 mm
03:13 AM 26.6°F-3.0°C 20.4°F-6.4°C 77% 3.0 mph SW4.8 kmh SW 7.0 mph11.3 kmh 30.13 in1020.3 mb 0.00 in0.0 mm 0.00 in0.0 mm 0.00 in0.0 mm
03:15 AM 26.6°F-3.0°C 20.4°F-6.4°C 77% 2.0 mph WSW3.2 kmh WSW 7.0 mph11.3 kmh 30.12 in1020.0 mb 0.00 in0.0 mm 0.00 in0.0 mm 0.00 in0.0 mm
03:17 AM 26.5°F-3.1°C 20.3°F-6.5°C 77% 2.0 mph WNW3.2 kmh WNW 7.0 mph11.3 kmh 30.12 in1020.0 mb 0.00 in0.0 mm 0.00 in0.0 mm 0.00 in0.0 mm
03:19 AM 26.6°F-3.0°C 20.4°F-6.4°C 77% 3.0 mph SW4.8 kmh SW 7.0 mph11.3 kmh 30.12 in1020.0 mb 0.00 in0.0 mm 0.00 in0.0 mm 0.00 in0.0 mm
03:21 AM 26.5°F-3.1°C 20.3°F-6.5°C 77% 1.0 mph WSW1.6 kmh WSW 7.0 mph11.3 kmh 30.12 in1020.0 mb 0.00 in0.0 mm 0.00 in0.0 mm 0.00 in0.0 mm
03:23 AM 26.5°F-3.1°C 20.3°F-6.5°C 77% 1.0 mph WSW1.6 kmh WSW 5.0 mph8.0 kmh 30.12 in1020.0 mb 0.00 in0.0 mm 0.00 in0.0 mm 0.00 in0.0 mm
03:25 AM 26.5°F-3.1°C 20.3°F-6.5°C 77% 2.0 mph SW3.2 kmh SW 5.0 mph8.0 kmh 30.12 in1020.0 mb 0.00 in0.0 mm 0.00 in0.0 mm 0.00 in0.0 mm
03:27 AM 26.5°F-3.1°C 20.3°F-6.5°C 77% 1.0 mph SSW1.6 kmh SSW 5.0 mph8.0 kmh 30.12 in1020.0 mb 0.00 in0.0 mm 0.00 in0.0 mm 0.00 in0.0 mm
03:29 AM 26.5°F-3.1°C 20.6°F-6.3°C 78% 3.0 mph WSW4.8 kmh WSW 5.0 mph8.0 kmh 30.12 in1020.0 mb 0.00 in0.0 mm 0.00 in0.0 mm 0.00 in0.0 mm
03:31 AM 26.5°F-3.1°C 20.3°F-6.5°C 77% 2.0 mph WSW3.2 kmh WSW 5.0 mph8.0 kmh 30.12 in1020.0 mb 0.00 in0.0 mm 0.00 in0.0 mm 0.00 in0.0 mm
03:33 AM 26.5°F-3.1°C 20.3°F-6.5°C 77% 3.0 mph S4.8 kmh S 5.0 mph8.0 kmh 30.12 in1020.0 mb 0.00 in0.0 mm 0.00 in0.0 mm 0.00 in0.0 mm
03:35 AM 26.5°F-3.1°C 20.3°F-6.5°C 77% 4.0 mph NW6.4 kmh NW 6.0 mph9.7 kmh 30.12 in1020.0 mb 0.00 in0.0 mm 0.00 in0.0 mm 0.00 in0.0 mm
03:37 AM 26.6°F-3.0°C 20.4°F-6.4°C 77% 1.0 mph W1.6 kmh W 6.0 mph9.7 kmh 30.12 in1020.0 mb 0.00 in0.0 mm 0.00 in0.0 mm 0.00 in0.0 mm
03:39 AM 26.6°F-3.0°C 20.7°F-6.3°C 78% 1.0 mph W1.6 kmh W 6.0 mph9.7 kmh 30.12 in1020.0 mb 0.00 in0.0 mm 0.00 in0.0 mm 0.00 in0.0 mm
03:41 AM 26.6°F-3.0°C 20.7°F-6.3°C 78% Calm Calm 6.0 mph9.7 kmh 30.12 in1020.0 mb 0.00 in0.0 mm 0.00 in0.0 mm 0.00 in0.0 mm
03:43 AM 26.6°F-3.0°C 20.7°F-6.3°C 78% 2.0 mph WSW3.2 kmh WSW 6.0 mph9.7 kmh 30.12 in1020.0 mb 0.00 in0.0 mm 0.00 in0.0 mm 0.00 in0.0 mm
03:45 AM 26.6°F-3.0°C 20.7°F-6.3°C 78% 1.0 mph SW1.6 kmh SW 6.0 mph9.7 kmh 30.12 in1020.0 mb 0.00 in0.0 mm 0.00 in0.0 mm 0.00 in0.0 mm
03:47 AM 26.6°F-3.0°C 20.7°F-6.3°C 78% 1.0 mph W1.6 kmh W 6.0 mph9.7 kmh 30.12 in1020.0 mb 0.00 in0.0 mm 0.00 in0.0 mm 0.00 in0.0 mm
03:49 AM 26.6°F-3.0°C 20.7°F-6.3°C 78% Calm Calm 6.0 mph9.7 kmh 30.12 in1020.0 mb 0.00 in0.0 mm 0.00 in0.0 mm 0.00 in0.0 mm
03:51 AM 26.6°F-3.0°C 20.7°F-6.3°C 78% 2.0 mph S3.2 kmh S 6.0 mph9.7 kmh 30.12 in1020.0 mb 0.00 in0.0 mm 0.00 in0.0 mm 0.00 in0.0 mm
03:53 AM 26.6°F-3.0°C 20.4°F-6.4°C 77% 2.0 mph W3.2 kmh W 10.0 mph16.1 kmh 30.12 in1020.0 mb 0.00 in0.0 mm 0.00 in0.0 mm 0.00 in0.0 mm
03:55 AM 26.7°F-2.9°C 20.8°F-6.2°C 78% 1.0 mph WSW1.6 kmh WSW 10.0 mph16.1 kmh 30.12 in1020.0 mb 0.00 in0.0 mm 0.00 in0.0 mm 0.00 in0.0 mm
03:57 AM 26.7°F-2.9°C 20.5°F-6.4°C 77% 2.0 mph WSW3.2 kmh WSW 10.0 mph16.1 kmh 30.12 in1020.0 mb 0.00 in0.0 mm 0.00 in0.0 mm 0.00 in0.0 mm
03:59 AM 26.7°F-2.9°C 20.5°F-6.4°C 77% 1.0 mph SW1.6 kmh SW 10.0 mph16.1 kmh 30.12 in1020.0 mb 0.00 in0.0 mm 0.00 in0.0 mm 0.00 in0.0 mm
04:01 AM 26.7°F-2.9°C 20.5°F-6.4°C 77% 1.0 mph WSW1.6 kmh WSW 10.0 mph16.1 kmh 30.12 in1020.0 mb 0.00 in0.0 mm 0.00 in0.0 mm 0.00 in0.0 mm
04:03 AM 26.7°F-2.9°C 20.8°F-6.2°C 78% 1.0 mph WSW1.6 kmh WSW 10.0 mph16.1 kmh 30.12 in1020.0 mb 0.00 in0.0 mm 0.00 in0.0 mm 0.00 in0.0 mm
04:05 AM 26.7°F-2.9°C 20.8°F-6.2°C 78% 2.0 mph WSW3.2 kmh WSW 10.0 mph16.1 kmh 30.12 in1020.0 mb 0.00 in0.0 mm 0.00 in0.0 mm 0.00 in0.0 mm
04:07 AM 26.7°F-2.9°C 20.5°F-6.4°C 77% 2.0 mph W3.2 kmh W 10.0 mph16.1 kmh 30.12 in1020.0 mb 0.00 in0.0 mm 0.00 in0.0 mm 0.00 in0.0 mm
04:09 AM 26.7°F-2.9°C 20.8°F-6.2°C 78% 2.0 mph S3.2 kmh S 10.0 mph16.1 kmh 30.12 in1020.0 mb 0.00 in0.0 mm 0.00 in0.0 mm 0.00 in0.0 mm
04:11 AM 26.7°F-2.9°C 20.5°F-6.4°C 77% 2.0 mph WSW3.2 kmh WSW 10.0 mph16.1 kmh 30.12 in1020.0 mb 0.00 in0.0 mm 0.00 in0.0 mm 0.00 in0.0 mm
04:13 AM 26.7°F-2.9°C 20.5°F-6.4°C 77% 2.0 mph SW3.2 kmh SW 9.0 mph14.5 kmh 30.12 in1020.0 mb 0.00 in0.0 mm 0.00 in0.0 mm 0.00 in0.0 mm
04:15 AM 26.7°F-2.9°C 20.5°F-6.4°C 77% 2.0 mph WSW3.2 kmh WSW 9.0 mph14.5 kmh 30.12 in1020.0 mb 0.00 in0.0 mm 0.00 in0.0 mm 0.00 in0.0 mm
04:17 AM 26.7°F-2.9°C 20.8°F-6.2°C 78% 1.0 mph WSW1.6 kmh WSW 9.0 mph14.5 kmh 30.12 in1020.0 mb 0.00 in0.0 mm 0.00 in0.0 mm 0.00 in0.0 mm
04:19 AM 26.7°F-2.9°C 20.8°F-6.2°C 78% 2.0 mph W3.2 kmh W 9.0 mph14.5 kmh 30.12 in1020.0 mb 0.00 in0.0 mm 0.00 in0.0 mm 0.00 in0.0 mm
04:21 AM 26.7°F-2.9°C 20.8°F-6.2°C 78% 3.0 mph SW4.8 kmh SW 9.0 mph14.5 kmh 30.12 in1020.0 mb 0.00 in0.0 mm 0.00 in0.0 mm 0.00 in0.0 mm
04:23 AM 26.7°F-2.9°C 20.8°F-6.2°C 78% 1.0 mph SW1.6 kmh SW 6.0 mph9.7 kmh 30.12 in1020.0 mb 0.00 in0.0 mm 0.00 in0.0 mm 0.00 in0.0 mm
04:25 AM 26.7°F-2.9°C 20.8°F-6.2°C 78% 2.0 mph WSW3.2 kmh WSW 6.0 mph9.7 kmh 30.12 in1020.0 mb 0.00 in0.0 mm 0.00 in0.0 mm 0.00 in0.0 mm
04:27 AM 26.7°F-2.9°C 20.8°F-6.2°C 78% 3.0 mph SW4.8 kmh SW 6.0 mph9.7 kmh 30.12 in1020.0 mb 0.00 in0.0 mm 0.00 in0.0 mm 0.00 in0.0 mm
04:29 AM 26.7°F-2.9°C 20.5°F-6.4°C 77% 2.0 mph W3.2 kmh W 6.0 mph9.7 kmh 30.12 in1020.0 mb 0.00 in0.0 mm 0.00 in0.0 mm 0.00 in0.0 mm
04:31 AM 26.7°F-2.9°C 20.5°F-6.4°C 77% 1.0 mph WSW1.6 kmh WSW 6.0 mph9.7 kmh 30.12 in1020.0 mb 0.00 in0.0 mm 0.00 in0.0 mm 0.00 in0.0 mm
04:33 AM 26.7°F-2.9°C 20.5°F-6.4°C 77% 3.0 mph W4.8 kmh W 6.0 mph9.7 kmh 30.12 in1020.0 mb 0.00 in0.0 mm 0.00 in0.0 mm 0.00 in0.0 mm
04:35 AM 26.7°F-2.9°C 20.5°F-6.4°C 77% 1.0 mph W1.6 kmh W 6.0 mph9.7 kmh 30.12 in1020.0 mb 0.00 in0.0 mm 0.00 in0.0 mm 0.00 in0.0 mm
04:37 AM 26.6°F-3.0°C 20.4°F-6.4°C 77% 1.0 mph WSW1.6 kmh WSW 6.0 mph9.7 kmh 30.12 in1020.0 mb 0.00 in0.0 mm 0.00 in0.0 mm 0.00 in0.0 mm
04:39 AM 26.6°F-3.0°C 20.4°F-6.4°C 77% 1.0 mph WSW1.6 kmh WSW 6.0 mph9.7 kmh 30.12 in1020.0 mb 0.00 in0.0 mm 0.00 in0.0 mm 0.00 in0.0 mm
04:41 AM 26.6°F-3.0°C 20.4°F-6.4°C 77% 1.0 mph SW1.6 kmh SW 6.0 mph9.7 kmh 30.12 in1020.0 mb 0.00 in0.0 mm 0.00 in0.0 mm 0.00 in0.0 mm
04:43 AM 26.5°F-3.1°C 20.6°F-6.3°C 78% 1.0 mph SW1.6 kmh SW 6.0 mph9.7 kmh 30.12 in1020.0 mb 0.00 in0.0 mm 0.00 in0.0 mm 0.00 in0.0 mm
04:45 AM 26.5°F-3.1°C 20.3°F-6.5°C 77% 1.0 mph WSW1.6 kmh WSW 6.0 mph9.7 kmh 30.12 in1020.0 mb 0.00 in0.0 mm 0.00 in0.0 mm 0.00 in0.0 mm
04:47 AM 26.6°F-3.0°C 20.4°F-6.4°C 77% 1.0 mph SW1.6 kmh SW 6.0 mph9.7 kmh 30.12 in1020.0 mb 0.00 in0.0 mm 0.00 in0.0 mm 0.00 in0.0 mm
04:49 AM 26.6°F-3.0°C 20.4°F-6.4°C 77% 2.0 mph W3.2 kmh W 7.0 mph11.3 kmh 30.12 in1020.0 mb 0.00 in0.0 mm 0.00 in0.0 mm 0.00 in0.0 mm
04:51 AM 26.6°F-3.0°C 20.7°F-6.3°C 78% Calm Calm 7.0 mph11.3 kmh 30.12 in1020.0 mb 0.00 in0.0 mm 0.00 in0.0 mm 0.00 in0.0 mm
04:53 AM 26.6°F-3.0°C 20.7°F-6.3°C 78% 2.0 mph SW3.2 kmh SW 7.0 mph11.3 kmh 30.12 in1020.0 mb 0.00 in0.0 mm 0.00 in0.0 mm 0.00 in0.0 mm
04:55 AM 26.5°F-3.1°C 20.6°F-6.3°C 78% 1.0 mph SW1.6 kmh SW 7.0 mph11.3 kmh 30.12 in1020.0 mb 0.00 in0.0 mm 0.00 in0.0 mm 0.00 in0.0 mm
04:57 AM 26.5°F-3.1°C 20.6°F-6.3°C 78% 2.0 mph WSW3.2 kmh WSW 7.0 mph11.3 kmh 30.12 in1020.0 mb 0.00 in0.0 mm 0.00 in0.0 mm 0.00 in0.0 mm
04:59 AM 26.5°F-3.1°C 20.6°F-6.3°C 78% 1.0 mph SW1.6 kmh SW 9.0 mph14.5 kmh 30.12 in1020.0 mb 0.00 in0.0 mm 0.00 in0.0 mm 0.00 in0.0 mm
05:01 AM 26.5°F-3.1°C 20.6°F-6.3°C 78% 3.0 mph SW4.8 kmh SW 9.0 mph14.5 kmh 30.12 in1020.0 mb 0.00 in0.0 mm 0.00 in0.0 mm 0.00 in0.0 mm
05:03 AM 26.5°F-3.1°C 20.6°F-6.3°C 78% 2.0 mph WSW3.2 kmh WSW 9.0 mph14.5 kmh 30.12 in1020.0 mb 0.00 in0.0 mm 0.00 in0.0 mm 0.00 in0.0 mm
05:05 AM 26.5°F-3.1°C 20.6°F-6.3°C 78% 1.0 mph WSW1.6 kmh WSW 9.0 mph14.5 kmh 30.12 in1020.0 mb 0.00 in0.0 mm 0.00 in0.0 mm 0.00 in0.0 mm
05:07 AM 26.5°F-3.1°C 20.6°F-6.3°C 78% 1.0 mph WSW1.6 kmh WSW 9.0 mph14.5 kmh 30.12 in1020.0 mb 0.00 in0.0 mm 0.00 in0.0 mm 0.00 in0.0 mm
05:09 AM 26.5°F-3.1°C 20.6°F-6.3°C 78% 1.0 mph WSW1.6 kmh WSW 9.0 mph14.5 kmh 30.12 in1020.0 mb 0.00 in0.0 mm 0.00 in0.0 mm 0.00 in0.0 mm
05:11 AM 26.4°F-3.1°C 20.2°F-6.6°C 77% 4.0 mph SW6.4 kmh SW 9.0 mph14.5 kmh 30.12 in1020.0 mb 0.00 in0.0 mm 0.00 in0.0 mm 0.00 in0.0 mm
05:13 AM 26.5°F-3.1°C 20.3°F-6.5°C 77% Calm Calm 9.0 mph14.5 kmh 30.12 in1020.0 mb 0.00 in0.0 mm 0.00 in0.0 mm 0.00 in0.0 mm
05:15 AM 26.5°F-3.1°C 20.6°F-6.3°C 78% 1.0 mph SSW1.6 kmh SSW 9.0 mph14.5 kmh 30.12 in1020.0 mb 0.00 in0.0 mm 0.00 in0.0 mm 0.00 in0.0 mm
05:17 AM 26.5°F-3.1°C 20.6°F-6.3°C 78% 3.0 mph W4.8 kmh W 9.0 mph14.5 kmh 30.12 in1020.0 mb 0.00 in0.0 mm 0.00 in0.0 mm 0.00 in0.0 mm
05:19 AM 26.4°F-3.1°C 20.5°F-6.4°C 78% 1.0 mph WSW1.6 kmh WSW 7.0 mph11.3 kmh 30.12 in1020.0 mb 0.00 in0.0 mm 0.00 in0.0 mm 0.00 in0.0 mm
05:21 AM 26.5°F-3.1°C 20.6°F-6.3°C 78% 5.0 mph SSW8.0 kmh SSW 8.0 mph12.9 kmh 30.12 in1020.0 mb 0.00 in0.0 mm 0.00 in0.0 mm 0.00 in0.0 mm
05:23 AM 26.5°F-3.1°C 20.6°F-6.3°C 78% 2.0 mph WSW3.2 kmh WSW 8.0 mph12.9 kmh 30.12 in1020.0 mb 0.00 in0.0 mm 0.00 in0.0 mm 0.00 in0.0 mm
05:25 AM 26.5°F-3.1°C 20.6°F-6.3°C 78% 3.0 mph WSW4.8 kmh WSW 8.0 mph12.9 kmh 30.12 in1020.0 mb 0.00 in0.0 mm 0.00 in0.0 mm 0.00 in0.0 mm
05:27 AM 26.5°F-3.1°C 20.3°F-6.5°C 77% 2.0 mph W3.2 kmh W 8.0 mph12.9 kmh 30.12 in1020.0 mb 0.00 in0.0 mm 0.00 in0.0 mm 0.00 in0.0 mm
05:29 AM 26.5°F-3.1°C 20.6°F-6.3°C 78% 2.0 mph SW3.2 kmh SW 8.0 mph12.9 kmh 30.12 in1020.0 mb 0.00 in0.0 mm 0.00 in0.0 mm 0.00 in0.0 mm
05:31 AM 26.5°F-3.1°C 20.6°F-6.3°C 78% 1.0 mph WSW1.6 kmh WSW 8.0 mph12.9 kmh 30.12 in1020.0 mb 0.00 in0.0 mm 0.00 in0.0 mm 0.00 in0.0 mm
05:33 AM 26.5°F-3.1°C 20.6°F-6.3°C 78% 2.0 mph SW3.2 kmh SW 8.0 mph12.9 kmh 30.12 in1020.0 mb 0.00 in0.0 mm 0.00 in0.0 mm 0.00 in0.0 mm
05:35 AM 26.5°F-3.1°C 20.6°F-6.3°C 78% 2.0 mph WSW3.2 kmh WSW 8.0 mph12.9 kmh 30.12 in1020.0 mb 0.00 in0.0 mm 0.00 in0.0 mm 0.00 in0.0 mm
05:37 AM 26.5°F-3.1°C 20.6°F-6.3°C 78% 2.0 mph SW3.2 kmh SW 8.0 mph12.9 kmh 30.11 in1019.6 mb 0.00 in0.0 mm 0.00 in0.0 mm 0.00 in0.0 mm
05:39 AM 26.6°F-3.0°C 20.7°F-6.3°C 78% 2.0 mph WSW3.2 kmh WSW 8.0 mph12.9 kmh 30.12 in1020.0 mb 0.00 in0.0 mm 0.00 in0.0 mm 0.00 in0.0 mm
05:41 AM 26.5°F-3.1°C 20.6°F-6.3°C 78% Calm Calm 4.0 mph6.4 kmh 30.12 in1020.0 mb 0.00 in0.0 mm 0.00 in0.0 mm 0.00 in0.0 mm
05:43 AM 26.5°F-3.1°C 20.3°F-6.5°C 77% 1.0 mph SSW1.6 kmh SSW 4.0 mph6.4 kmh 30.12 in1020.0 mb 0.00 in0.0 mm 0.00 in0.0 mm 0.00 in0.0 mm
05:45 AM 26.5°F-3.1°C 20.3°F-6.5°C 77% 2.0 mph WSW3.2 kmh WSW 4.0 mph6.4 kmh 30.12 in1020.0 mb 0.00 in0.0 mm 0.00 in0.0 mm 0.00 in0.0 mm
05:47 AM 26.4°F-3.1°C 20.2°F-6.6°C 77% 3.0 mph SSW4.8 kmh SSW 4.0 mph6.4 kmh 30.12 in1020.0 mb 0.00 in0.0 mm 0.00 in0.0 mm 0.00 in0.0 mm
05:49 AM 26.4°F-3.1°C 20.5°F-6.4°C 78% 1.0 mph WSW1.6 kmh WSW 4.0 mph6.4 kmh 30.12 in1020.0 mb 0.00 in0.0 mm 0.00 in0.0 mm 0.00 in0.0 mm
05:51 AM 26.4°F-3.1°C 20.5°F-6.4°C 78% 2.0 mph WSW3.2 kmh WSW 4.0 mph6.4 kmh 30.12 in1020.0 mb 0.00 in0.0 mm 0.00 in0.0 mm 0.00 in0.0 mm
05:53 AM 26.3°F-3.2°C 20.4°F-6.4°C 78% 1.0 mph SW1.6 kmh SW 4.0 mph6.4 kmh 30.11 in1019.6 mb 0.00 in0.0 mm 0.00 in0.0 mm 0.00 in0.0 mm
05:55 AM 26.3°F-3.2°C 20.4°F-6.4°C 78% 1.0 mph SW1.6 kmh SW 4.0 mph6.4 kmh 30.11 in1019.6 mb 0.00 in0.0 mm 0.00 in0.0 mm 0.00 in0.0 mm
05:57 AM 26.3°F-3.2°C 20.4°F-6.4°C 78% 2.0 mph SSE3.2 kmh SSE 6.0 mph9.7 kmh 30.12 in1020.0 mb 0.00 in0.0 mm 0.00 in0.0 mm 0.00 in0.0 mm
05:59 AM 26.3°F-3.2°C 20.4°F-6.4°C 78% 2.0 mph WSW3.2 kmh WSW 6.0 mph9.7 kmh 30.12 in1020.0 mb 0.00 in0.0 mm 0.00 in0.0 mm 0.00 in0.0 mm
06:01 AM 26.4°F-3.1°C 20.5°F-6.4°C 78% 2.0 mph SW3.2 kmh SW 6.0 mph9.7 kmh 30.12 in1020.0 mb 0.00 in0.0 mm 0.00 in0.0 mm 0.00 in0.0 mm
06:03 AM 26.4°F-3.1°C 20.5°F-6.4°C 78% 3.0 mph WNW4.8 kmh WNW 6.0 mph9.7 kmh 30.12 in1020.0 mb 0.00 in0.0 mm 0.00 in0.0 mm 0.00 in0.0 mm
06:05 AM 26.4°F-3.1°C 20.5°F-6.4°C 78% 2.0 mph W3.2 kmh W 6.0 mph9.7 kmh 30.12 in1020.0 mb 0.00 in0.0 mm 0.00 in0.0 mm 0.00 in0.0 mm
06:07 AM 26.4°F-3.1°C 20.5°F-6.4°C 78% 5.0 mph S8.0 kmh S 6.0 mph9.7 kmh 30.12 in1020.0 mb 0.00 in0.0 mm 0.00 in0.0 mm 0.00 in0.0 mm
06:09 AM 26.4°F-3.1°C 20.5°F-6.4°C 78% 2.0 mph WSW3.2 kmh WSW 7.0 mph11.3 kmh 30.12 in1020.0 mb 0.00 in0.0 mm 0.00 in0.0 mm 0.00 in0.0 mm
06:11 AM 26.4°F-3.1°C 20.5°F-6.4°C 78% 1.0 mph WSW1.6 kmh WSW 7.0 mph11.3 kmh 30.12 in1020.0 mb 0.00 in0.0 mm 0.00 in0.0 mm 0.00 in0.0 mm
06:13 AM 26.5°F-3.1°C 20.6°F-6.3°C 78% 1.0 mph SW1.6 kmh SW 7.0 mph11.3 kmh 30.12 in1020.0 mb 0.00 in0.0 mm 0.00 in0.0 mm 0.00 in0.0 mm
06:15 AM 26.5°F-3.1°C 20.6°F-6.3°C 78% 5.0 mph WSW8.0 kmh WSW 7.0 mph11.3 kmh 30.12 in1020.0 mb 0.00 in0.0 mm 0.00 in0.0 mm 0.00 in0.0 mm
06:17 AM 26.5°F-3.1°C 20.6°F-6.3°C 78% 1.0 mph SSW1.6 kmh SSW 7.0 mph11.3 kmh 30.12 in1020.0 mb 0.00 in0.0 mm 0.00 in0.0 mm 0.00 in0.0 mm
06:19 AM 26.4°F-3.1°C 20.5°F-6.4°C 78% 2.0 mph WSW3.2 kmh WSW 7.0 mph11.3 kmh 30.12 in1020.0 mb 0.00 in0.0 mm 0.00 in0.0 mm 0.00 in0.0 mm
06:21 AM 26.5°F-3.1°C 20.3°F-6.5°C 77% 2.0 mph WSW3.2 kmh WSW 7.0 mph11.3 kmh 30.12 in1020.0 mb 0.00 in0.0 mm 0.00 in0.0 mm 0.00 in0.0 mm
06:23 AM 26.5°F-3.1°C 20.3°F-6.5°C 77% 2.0 mph WSW3.2 kmh WSW 7.0 mph11.3 kmh 30.12 in1020.0 mb 0.00 in0.0 mm 0.00 in0.0 mm 0.00 in0.0 mm
06:25 AM 26.5°F-3.1°C 20.3°F-6.5°C 77% 4.0 mph SW6.4 kmh SW 7.0 mph11.3 kmh 30.12 in1020.0 mb 0.00 in0.0 mm 0.00 in0.0 mm 0.00 in0.0 mm
06:27 AM 26.6°F-3.0°C 20.4°F-6.4°C 77% 1.0 mph SW1.6 kmh SW 7.0 mph11.3 kmh 30.12 in1020.0 mb 0.00 in0.0 mm 0.00 in0.0 mm 0.00 in0.0 mm
06:29 AM 26.6°F-3.0°C 20.4°F-6.4°C 77% 1.0 mph W1.6 kmh W 6.0 mph9.7 kmh 30.12 in1020.0 mb 0.00 in0.0 mm 0.00 in0.0 mm 0.00 in0.0 mm
06:31 AM 26.6°F-3.0°C 20.4°F-6.4°C 77% 2.0 mph S3.2 kmh S 6.0 mph9.7 kmh 30.12 in1020.0 mb 0.00 in0.0 mm 0.00 in0.0 mm 0.00 in0.0 mm
06:33 AM 26.6°F-3.0°C 20.4°F-6.4°C 77% 1.0 mph WSW1.6 kmh WSW 6.0 mph9.7 kmh 30.12 in1020.0 mb 0.00 in0.0 mm 0.00 in0.0 mm 0.00 in0.0 mm
06:35 AM 26.6°F-3.0°C 20.4°F-6.4°C 77% 1.0 mph WSW1.6 kmh WSW 6.0 mph9.7 kmh 30.12 in1020.0 mb 0.00 in0.0 mm 0.00 in0.0 mm 0.00 in0.0 mm
06:37 AM 26.6°F-3.0°C 20.4°F-6.4°C 77% 3.0 mph SW4.8 kmh SW 7.0 mph11.3 kmh 30.12 in1020.0 mb 0.00 in0.0 mm 0.00 in0.0 mm 0.00 in0.0 mm
06:39 AM 26.6°F-3.0°C 20.4°F-6.4°C 77% 1.0 mph WSW1.6 kmh WSW 7.0 mph11.3 kmh 30.12 in1020.0 mb 0.00 in0.0 mm 0.00 in0.0 mm 0.00 in0.0 mm
06:41 AM 26.6°F-3.0°C 20.4°F-6.4°C 77% 1.0 mph SW1.6 kmh SW 7.0 mph11.3 kmh 30.12 in1020.0 mb 0.00 in0.0 mm 0.00 in0.0 mm 0.00 in0.0 mm
06:43 AM 26.5°F-3.1°C 20.3°F-6.5°C 77% 6.0 mph SW9.7 kmh SW 7.0 mph11.3 kmh 30.12 in1020.0 mb 0.00 in0.0 mm 0.00 in0.0 mm 0.00 in0.0 mm
06:45 AM 26.5°F-3.1°C 20.3°F-6.5°C 77% 1.0 mph SW1.6 kmh SW 7.0 mph11.3 kmh 30.12 in1020.0 mb 0.00 in0.0 mm 0.00 in0.0 mm 0.00 in0.0 mm
06:47 AM 26.5°F-3.1°C 20.3°F-6.5°C 77% 3.0 mph SW4.8 kmh SW 7.0 mph11.3 kmh 30.12 in1020.0 mb 0.00 in0.0 mm 0.00 in0.0 mm 0.00 in0.0 mm
06:49 AM 26.5°F-3.1°C 20.3°F-6.5°C 77% 1.0 mph SW1.6 kmh SW 7.0 mph11.3 kmh 30.11 in1019.6 mb 0.00 in0.0 mm 0.00 in0.0 mm 0.00 in0.0 mm
06:51 AM 26.5°F-3.1°C 20.6°F-6.3°C 78% 2.0 mph S3.2 kmh S 7.0 mph11.3 kmh 30.12 in1020.0 mb 0.00 in0.0 mm 0.00 in0.0 mm 0.00 in0.0 mm
06:53 AM 26.5°F-3.1°C 20.3°F-6.5°C 77% 3.0 mph WSW4.8 kmh WSW 7.0 mph11.3 kmh 30.11 in1019.6 mb 0.00 in0.0 mm 0.00 in0.0 mm 0.00 in0.0 mm
06:55 AM 26.5°F-3.1°C 20.3°F-6.5°C 77% 2.0 mph W3.2 kmh W 7.0 mph11.3 kmh 30.11 in1019.6 mb 0.00 in0.0 mm 0.00 in0.0 mm 0.00 in0.0 mm
06:57 AM 26.5°F-3.1°C 20.6°F-6.3°C 78% 2.0 mph WSW3.2 kmh WSW 7.0 mph11.3 kmh 30.11 in1019.6 mb 0.00 in0.0 mm 0.00 in0.0 mm 0.00 in0.0 mm
06:59 AM 26.5°F-3.1°C 20.6°F-6.3°C 78% 1.0 mph WSW1.6 kmh WSW 7.0 mph11.3 kmh 30.12 in1020.0 mb 0.00 in0.0 mm 0.00 in0.0 mm 0.00 in0.0 mm
07:01 AM 26.5°F-3.1°C 20.6°F-6.3°C 78% 1.0 mph SW1.6 kmh SW 7.0 mph11.3 kmh 30.12 in1020.0 mb 0.00 in0.0 mm 0.00 in0.0 mm 0.00 in0.0 mm
07:03 AM 26.4°F-3.1°C 20.5°F-6.4°C 78% 2.0 mph S3.2 kmh S 7.0 mph11.3 kmh 30.12 in1020.0 mb 0.00 in0.0 mm 0.00 in0.0 mm 0.00 in0.0 mm
07:05 AM 26.4°F-3.1°C 20.5°F-6.4°C 78% 2.0 mph SW3.2 kmh SW 7.0 mph11.3 kmh 30.12 in1020.0 mb 0.00 in0.0 mm 0.00 in0.0 mm 0.00 in0.0 mm
07:07 AM 26.3°F-3.2°C 20.4°F-6.4°C 78% 2.0 mph WSW3.2 kmh WSW 7.0 mph11.3 kmh 30.12 in1020.0 mb 0.00 in0.0 mm 0.00 in0.0 mm 0.00 in0.0 mm
07:09 AM 26.3°F-3.2°C 20.4°F-6.4°C 78% 2.0 mph SW3.2 kmh SW 8.0 mph12.9 kmh 30.12 in1020.0 mb 0.00 in0.0 mm 0.00 in0.0 mm 0.00 in0.0 mm
07:11 AM 26.3°F-3.2°C 20.4°F-6.4°C 78% 1.0 mph SW1.6 kmh SW 8.0 mph12.9 kmh 30.12 in1020.0 mb 0.00 in0.0 mm 0.00 in0.0 mm 0.00 in0.0 mm
07:13 AM 26.3°F-3.2°C 20.7°F-6.3°C 79% 2.0 mph SW3.2 kmh SW 8.0 mph12.9 kmh 30.12 in1020.0 mb 0.00 in0.0 mm 0.00 in0.0 mm 0.00 in0.0 mm
07:15 AM 26.2°F-3.2°C 20.3°F-6.5°C 78% 1.0 mph WSW1.6 kmh WSW 8.0 mph12.9 kmh 30.12 in1020.0 mb 0.00 in0.0 mm 0.00 in0.0 mm 0.00 in0.0 mm
07:17 AM 26.2°F-3.2°C 20.6°F-6.3°C 79% 2.0 mph WSW3.2 kmh WSW 8.0 mph12.9 kmh 30.12 in1020.0 mb 0.00 in0.0 mm 0.00 in0.0 mm 0.00 in0.0 mm
07:19 AM 26.2°F-3.2°C 20.6°F-6.3°C 79% 2.0 mph SW3.2 kmh SW 8.0 mph12.9 kmh 30.12 in1020.0 mb 0.00 in0.0 mm 0.00 in0.0 mm 0.00 in0.0 mm
07:21 AM 26.2°F-3.2°C 20.6°F-6.3°C 79% 1.0 mph WSW1.6 kmh WSW 8.0 mph12.9 kmh 30.12 in1020.0 mb 0.00 in0.0 mm 0.00 in0.0 mm 0.00 in0.0 mm
07:23 AM 26.2°F-3.2°C 20.6°F-6.3°C 79% 3.0 mph SSW4.8 kmh SSW 8.0 mph12.9 kmh 30.12 in1020.0 mb 0.00 in0.0 mm 0.00 in0.0 mm 0.00 in0.0 mm
07:25 AM 26.1°F-3.3°C 20.5°F-6.4°C 79% 2.0 mph SSW3.2 kmh SSW 8.0 mph12.9 kmh 30.11 in1019.6 mb 0.00 in0.0 mm 0.00 in0.0 mm 0.00 in0.0 mm
07:27 AM 26.1°F-3.3°C 20.5°F-6.4°C 79% 1.0 mph SW1.6 kmh SW 8.0 mph12.9 kmh 30.12 in1020.0 mb 0.00 in0.0 mm 0.00 in0.0 mm 0.00 in0.0 mm
07:29 AM 26.1°F-3.3°C 20.5°F-6.4°C 79% 1.0 mph SSW1.6 kmh SSW 4.0 mph6.4 kmh 30.12 in1020.0 mb 0.00 in0.0 mm 0.00 in0.0 mm 0.00 in0.0 mm
07:31 AM 26.1°F-3.3°C 20.5°F-6.4°C 79% 5.0 mph SW8.0 kmh SW 8.0 mph12.9 kmh 30.12 in1020.0 mb 0.00 in0.0 mm 0.00 in0.0 mm 0.00 in0.0 mm
07:33 AM 26.2°F-3.2°C 20.6°F-6.3°C 79% 1.0 mph WSW1.6 kmh WSW 8.0 mph12.9 kmh 30.12 in1020.0 mb 0.00 in0.0 mm 0.00 in0.0 mm 0.00 in0.0 mm
07:35 AM 26.2°F-3.2°C 20.6°F-6.3°C 79% 1.0 mph SW1.6 kmh SW 8.0 mph12.9 kmh 30.12 in1020.0 mb 0.00 in0.0 mm 0.00 in0.0 mm 0.00 in0.0 mm
07:37 AM 26.2°F-3.2°C 20.6°F-6.3°C 79% 4.0 mph SW6.4 kmh SW 8.0 mph12.9 kmh 30.11 in1019.6 mb 0.00 in0.0 mm 0.00 in0.0 mm 0.00 in0.0 mm
07:39 AM 26.3°F-3.2°C 20.7°F-6.3°C 79% 6.0 mph SW9.7 kmh SW 8.0 mph12.9 kmh 30.11 in1019.6 mb 0.00 in0.0 mm 0.00 in0.0 mm 0.00 in0.0 mm
07:41 AM 26.3°F-3.2°C 20.7°F-6.3°C 79% 1.0 mph WSW1.6 kmh WSW 8.0 mph12.9 kmh 30.11 in1019.6 mb 0.00 in0.0 mm 0.00 in0.0 mm 0.00 in0.0 mm
07:43 AM 26.3°F-3.2°C 20.7°F-6.3°C 79% 2.0 mph WSW3.2 kmh WSW 8.0 mph12.9 kmh 30.11 in1019.6 mb 0.00 in0.0 mm 0.00 in0.0 mm 0.00 in0.0 mm
07:45 AM 26.3°F-3.2°C 20.7°F-6.3°C 79% 2.0 mph W3.2 kmh W 8.0 mph12.9 kmh 30.11 in1019.6 mb 0.00 in0.0 mm 0.00 in0.0 mm 0.00 in0.0 mm
07:47 AM 26.3°F-3.2°C 20.7°F-6.3°C 79% 2.0 mph WSW3.2 kmh WSW 8.0 mph12.9 kmh 30.11 in1019.6 mb 0.00 in0.0 mm 0.00 in0.0 mm 0.00 in0.0 mm
07:49 AM 26.3°F-3.2°C 20.7°F-6.3°C 79% 1.0 mph SW1.6 kmh SW 8.0 mph12.9 kmh 30.11 in1019.6 mb 0.00 in0.0 mm 0.00 in0.0 mm 0.00 in0.0 mm
07:51 AM 26.3°F-3.2°C 20.7°F-6.3°C 79% 3.0 mph SW4.8 kmh SW 7.0 mph11.3 kmh 30.11 in1019.6 mb 0.00 in0.0 mm 0.00 in0.0 mm 0.00 in0.0 mm
07:53 AM 26.4°F-3.1°C 20.8°F-6.2°C 79% 2.0 mph SW3.2 kmh SW 7.0 mph11.3 kmh 30.11 in1019.6 mb 0.00 in0.0 mm 0.00 in0.0 mm 0.00 in0.0 mm
07:55 AM 26.4°F-3.1°C 20.8°F-6.2°C 79% 1.0 mph SW1.6 kmh SW 7.0 mph11.3 kmh 30.11 in1019.6 mb 0.00 in0.0 mm 0.00 in0.0 mm 0.00 in0.0 mm
07:57 AM 26.4°F-3.1°C 20.8°F-6.2°C 79% 2.0 mph SW3.2 kmh SW 7.0 mph11.3 kmh 30.11 in1019.6 mb 0.00 in0.0 mm 0.00 in0.0 mm 0.00 in0.0 mm
07:59 AM 26.4°F-3.1°C 20.8°F-6.2°C 79% 2.0 mph WNW3.2 kmh WNW 7.0 mph11.3 kmh 30.11 in1019.6 mb 0.00 in0.0 mm 0.00 in0.0 mm 0.00 in0.0 mm
08:01 AM 26.4°F-3.1°C 20.8°F-6.2°C 79% 1.0 mph WNW1.6 kmh WNW 4.0 mph6.4 kmh 30.11 in1019.6 mb 0.00 in0.0 mm 0.00 in0.0 mm 0.00 in0.0 mm
08:03 AM 26.4°F-3.1°C 20.8°F-6.2°C 79% 1.0 mph WSW1.6 kmh WSW 4.0 mph6.4 kmh 30.11 in1019.6 mb 0.00 in0.0 mm 0.00 in0.0 mm 0.00 in0.0 mm
08:05 AM 26.4°F-3.1°C 20.8°F-6.2°C 79% 2.0 mph SW3.2 kmh SW 4.0 mph6.4 kmh 30.11 in1019.6 mb 0.00 in0.0 mm 0.00 in0.0 mm 0.00 in0.0 mm
08:07 AM 26.4°F-3.1°C 20.8°F-6.2°C 79% 1.0 mph SW1.6 kmh SW 4.0 mph6.4 kmh 30.11 in1019.6 mb 0.00 in0.0 mm 0.00 in0.0 mm 0.00 in0.0 mm
08:09 AM 26.4°F-3.1°C 20.8°F-6.2°C 79% 1.0 mph SSW1.6 kmh SSW 4.0 mph6.4 kmh 30.11 in1019.6 mb 0.00 in0.0 mm 0.00 in0.0 mm 0.00 in0.0 mm
08:11 AM 26.4°F-3.1°C 20.8°F-6.2°C 79% 1.0 mph SW1.6 kmh SW 3.0 mph4.8 kmh 30.11 in1019.6 mb 0.00 in0.0 mm 0.00 in0.0 mm 0.00 in0.0 mm
08:13 AM 26.4°F-3.1°C 20.8°F-6.2°C 79% 2.0 mph WSW3.2 kmh WSW 3.0 mph4.8 kmh 30.11 in1019.6 mb 0.00 in0.0 mm 0.00 in0.0 mm 0.00 in0.0 mm
08:15 AM 26.4°F-3.1°C 20.8°F-6.2°C 79% 2.0 mph WSW3.2 kmh WSW 4.0 mph6.4 kmh 30.11 in1019.6 mb 0.00 in0.0 mm 0.00 in0.0 mm 0.00 in0.0 mm
08:17 AM 26.4°F-3.1°C 20.8°F-6.2°C 79% Calm Calm 4.0 mph6.4 kmh 30.11 in1019.6 mb 0.00 in0.0 mm 0.00 in0.0 mm 0.00 in0.0 mm
08:19 AM 26.4°F-3.1°C 21.1°F-6.1°C 80% 2.0 mph W3.2 kmh W 4.0 mph6.4 kmh 30.11 in1019.6 mb 0.00 in0.0 mm 0.00 in0.0 mm 0.00 in0.0 mm
08:21 AM 26.4°F-3.1°C 21.1°F-6.1°C 80% Calm Calm 4.0 mph6.4 kmh 30.11 in1019.6 mb 0.00 in0.0 mm 0.00 in0.0 mm 0.00 in0.0 mm
08:23 AM 26.5°F-3.1°C 21.2°F-6.0°C 80% 2.0 mph WSW3.2 kmh WSW 4.0 mph6.4 kmh 30.11 in1019.6 mb 0.00 in0.0 mm 0.00 in0.0 mm 0.00 in0.0 mm
08:25 AM 26.5°F-3.1°C 20.9°F-6.2°C 79% 1.0 mph SW1.6 kmh SW 4.0 mph6.4 kmh 30.11 in1019.6 mb 0.00 in0.0 mm 0.00 in0.0 mm 0.00 in0.0 mm
08:27 AM 26.6°F-3.0°C 21.0°F-6.1°C 79% Calm Calm 4.0 mph6.4 kmh 30.11 in1019.6 mb 0.00 in0.0 mm 0.00 in0.0 mm 0.00 in0.0 mm
08:29 AM 26.6°F-3.0°C 21.0°F-6.1°C 79% 2.0 mph WSW3.2 kmh WSW 4.0 mph6.4 kmh 30.11 in1019.6 mb 0.00 in0.0 mm 0.00 in0.0 mm 0.00 in0.0 mm
08:31 AM 26.7°F-2.9°C 21.1°F-6.1°C 79% 1.0 mph S1.6 kmh S 4.0 mph6.4 kmh 30.11 in1019.6 mb 0.00 in0.0 mm 0.00 in0.0 mm 0.00 in0.0 mm
08:33 AM 26.7°F-2.9°C 21.1°F-6.1°C 79% 3.0 mph S4.8 kmh S 5.0 mph8.0 kmh 30.11 in1019.6 mb 0.00 in0.0 mm 0.00 in0.0 mm 0.00 in0.0 mm
08:35 AM 26.8°F-2.9°C 21.2°F-6.0°C 79% 1.0 mph SSW1.6 kmh SSW 5.0 mph8.0 kmh 30.11 in1019.6 mb 0.00 in0.0 mm 0.00 in0.0 mm 0.00 in0.0 mm
08:37 AM 26.8°F-2.9°C 21.2°F-6.0°C 79% 3.0 mph SSW4.8 kmh SSW 5.0 mph8.0 kmh 30.12 in1020.0 mb 0.00 in0.0 mm 0.00 in0.0 mm 0.00 in0.0 mm
08:39 AM 26.9°F-2.8°C 21.3°F-5.9°C 79% 1.0 mph SSW1.6 kmh SSW 5.0 mph8.0 kmh 30.11 in1019.6 mb 0.00 in0.0 mm 0.00 in0.0 mm 0.00 in0.0 mm
08:41 AM 26.9°F-2.8°C 21.3°F-5.9°C 79% Calm Calm 5.0 mph8.0 kmh 30.12 in1020.0 mb 0.00 in0.0 mm 0.00 in0.0 mm 0.00 in0.0 mm
08:43 AM 27.0°F-2.8°C 21.4°F-5.9°C 79% 2.0 mph S3.2 kmh S 5.0 mph8.0 kmh 30.12 in1020.0 mb 0.00 in0.0 mm 0.00 in0.0 mm 0.00 in0.0 mm
08:45 AM 27.1°F-2.7°C 21.2°F-6.0°C 78% 1.0 mph SW1.6 kmh SW 5.0 mph8.0 kmh 30.11 in1019.6 mb 0.00 in0.0 mm 0.00 in0.0 mm 0.00 in0.0 mm
08:47 AM 27.2°F-2.7°C 21.3°F-5.9°C 78% 4.0 mph SW6.4 kmh SW 5.0 mph8.0 kmh 30.11 in1019.6 mb 0.00 in0.0 mm 0.00 in0.0 mm 0.00 in0.0 mm
08:49 AM 27.3°F-2.6°C 21.4°F-5.9°C 78% 3.0 mph SSW4.8 kmh SSW 6.0 mph9.7 kmh 30.11 in1019.6 mb 0.00 in0.0 mm 0.00 in0.0 mm 0.00 in0.0 mm
08:51 AM 27.5°F-2.5°C 21.6°F-5.8°C 78% 2.0 mph WSW3.2 kmh WSW 8.0 mph12.9 kmh 30.11 in1019.6 mb 0.00 in0.0 mm 0.00 in0.0 mm 0.00 in0.0 mm
08:53 AM 27.6°F-2.4°C 21.7°F-5.7°C 78% 1.0 mph SSW1.6 kmh SSW 8.0 mph12.9 kmh 30.11 in1019.6 mb 0.00 in0.0 mm 0.00 in0.0 mm 0.00 in0.0 mm
08:55 AM 27.8°F-2.3°C 21.5°F-5.8°C 77% 1.0 mph SW1.6 kmh SW 8.0 mph12.9 kmh 30.11 in1019.6 mb 0.00 in0.0 mm 0.00 in0.0 mm 0.00 in0.0 mm
08:57 AM 27.9°F-2.3°C 21.6°F-5.8°C 77% 3.0 mph SW4.8 kmh SW 8.0 mph12.9 kmh 30.11 in1019.6 mb 0.00 in0.0 mm 0.00 in0.0 mm 0.00 in0.0 mm
08:59 AM 28.0°F-2.2°C 21.7°F-5.7°C 77% 1.0 mph SW1.6 kmh SW 8.0 mph12.9 kmh 30.11 in1019.6 mb 0.00 in0.0 mm 0.00 in0.0 mm 0.00 in0.0 mm
09:01 AM 28.2°F-2.1°C 21.9°F-5.6°C 77% 4.0 mph SW6.4 kmh SW 8.0 mph12.9 kmh 30.11 in1019.6 mb 0.00 in0.0 mm 0.00 in0.0 mm 0.00 in0.0 mm
09:03 AM 28.3°F-2.1°C 22.0°F-5.6°C 77% 3.0 mph SSW4.8 kmh SSW 8.0 mph12.9 kmh 30.11 in1019.6 mb 0.00 in0.0 mm 0.00 in0.0 mm 0.00 in0.0 mm
09:05 AM 28.5°F-1.9°C 22.2°F-5.4°C 77% 2.0 mph S3.2 kmh S 8.0 mph12.9 kmh 30.12 in1020.0 mb 0.00 in0.0 mm 0.00 in0.0 mm 0.00 in0.0 mm
09:07 AM 28.7°F-1.8°C 22.4°F-5.3°C 77% 2.0 mph WSW3.2 kmh WSW 8.0 mph12.9 kmh 30.11 in1019.6 mb 0.00 in0.0 mm 0.00 in0.0 mm 0.00 in0.0 mm
09:09 AM 28.9°F-1.7°C 22.3°F-5.4°C 76% 3.0 mph SW4.8 kmh SW 8.0 mph12.9 kmh 30.12 in1020.0 mb 0.00 in0.0 mm 0.00 in0.0 mm 0.00 in0.0 mm
09:11 AM 29.1°F-1.6°C 22.5°F-5.3°C 76% Calm Calm 6.0 mph9.7 kmh 30.12 in1020.0 mb 0.00 in0.0 mm 0.00 in0.0 mm 0.00 in0.0 mm
09:13 AM 29.3°F-1.5°C 22.4°F-5.3°C 75% 1.0 mph WSW1.6 kmh WSW 8.0 mph12.9 kmh 30.12 in1020.0 mb 0.00 in0.0 mm 0.00 in0.0 mm 0.00 in0.0 mm
09:15 AM 29.5°F-1.4°C 22.3°F-5.4°C 74% 2.0 mph WNW3.2 kmh WNW 8.0 mph12.9 kmh 30.12 in1020.0 mb 0.00 in0.0 mm 0.00 in0.0 mm 0.00 in0.0 mm
09:17 AM 29.7°F-1.3°C 22.4°F-5.3°C 74% 2.0 mph WSW3.2 kmh WSW 8.0 mph12.9 kmh 30.12 in1020.0 mb 0.00 in0.0 mm 0.00 in0.0 mm 0.00 in0.0 mm
09:19 AM 29.8°F-1.2°C 22.5°F-5.3°C 74% 3.0 mph SW4.8 kmh SW 8.0 mph12.9 kmh 30.11 in1019.6 mb 0.00 in0.0 mm 0.00 in0.0 mm 0.00 in0.0 mm
09:21 AM 30.0°F-1.1°C 22.7°F-5.2°C 74% 2.0 mph SSW3.2 kmh SSW 8.0 mph12.9 kmh 30.12 in1020.0 mb 0.00 in0.0 mm 0.00 in0.0 mm 0.00 in0.0 mm
09:23 AM 30.2°F-1.0°C 22.9°F-5.1°C 74% 3.0 mph SSW4.8 kmh SSW 8.0 mph12.9 kmh 30.12 in1020.0 mb 0.00 in0.0 mm 0.00 in0.0 mm 0.00 in0.0 mm
09:25 AM 30.4°F-0.9°C 22.8°F-5.1°C 73% 1.0 mph SSW1.6 kmh SSW 8.0 mph12.9 kmh 30.12 in1020.0 mb 0.00 in0.0 mm 0.00 in0.0 mm 0.00 in0.0 mm
09:27 AM 30.5°F-0.8°C 22.9°F-5.1°C 73% 2.0 mph S3.2 kmh S 8.0 mph12.9 kmh 30.12 in1020.0 mb 0.00 in0.0 mm 0.00 in0.0 mm 0.00 in0.0 mm
09:29 AM 30.7°F-0.7°C 23.1°F-4.9°C 73% Calm Calm 8.0 mph12.9 kmh 30.12 in1020.0 mb 0.00 in0.0 mm 0.00 in0.0 mm 0.00 in0.0 mm
09:31 AM 30.9°F-0.6°C 23.3°F-4.8°C 73% 1.0 mph W1.6 kmh W 8.0 mph12.9 kmh 30.12 in1020.0 mb 0.00 in0.0 mm 0.00 in0.0 mm 0.00 in0.0 mm
09:33 AM 31.1°F-0.5°C 23.5°F-4.7°C 73% 2.0 mph WSW3.2 kmh WSW 8.0 mph12.9 kmh 30.12 in1020.0 mb 0.00 in0.0 mm 0.00 in0.0 mm 0.00 in0.0 mm
09:35 AM 31.2°F-0.4°C 23.2°F-4.9°C 72% 3.0 mph S4.8 kmh S 8.0 mph12.9 kmh 30.12 in1020.0 mb 0.00 in0.0 mm 0.00 in0.0 mm 0.00 in0.0 mm
09:37 AM 31.3°F-0.4°C 23.3°F-4.8°C 72% 2.0 mph SSW3.2 kmh SSW 8.0 mph12.9 kmh 30.12 in1020.0 mb 0.00 in0.0 mm 0.00 in0.0 mm 0.00 in0.0 mm
09:39 AM 31.5°F-0.3°C 23.2°F-4.9°C 71% 1.0 mph ESE1.6 kmh ESE 8.0 mph12.9 kmh 30.11 in1019.6 mb 0.00 in0.0 mm 0.00 in0.0 mm 0.00 in0.0 mm
09:41 AM 31.6°F-0.2°C 23.3°F-4.8°C 71% Calm Calm 8.0 mph12.9 kmh 30.11 in1019.6 mb 0.00 in0.0 mm 0.00 in0.0 mm 0.00 in0.0 mm
09:43 AM 31.7°F-0.2°C 23.4°F-4.8°C 71% 2.0 mph WSW3.2 kmh WSW 5.0 mph8.0 kmh 30.11 in1019.6 mb 0.00 in0.0 mm 0.00 in0.0 mm 0.00 in0.0 mm
09:45 AM 31.7°F-0.2°C 23.4°F-4.8°C 71% 3.0 mph SW4.8 kmh SW 6.0 mph9.7 kmh 30.12 in1020.0 mb 0.00 in0.0 mm 0.00 in0.0 mm 0.00 in0.0 mm
09:47 AM 31.8°F-0.1°C 23.5°F-4.7°C 71% 2.0 mph N3.2 kmh N 6.0 mph9.7 kmh 30.11 in1019.6 mb 0.00 in0.0 mm 0.00 in0.0 mm 0.00 in0.0 mm
09:49 AM 31.8°F-0.1°C 23.2°F-4.9°C 70% 6.0 mph S9.7 kmh S 6.0 mph9.7 kmh 30.12 in1020.0 mb 0.00 in0.0 mm 0.00 in0.0 mm 0.00 in0.0 mm
09:51 AM 31.7°F-0.2°C 23.1°F-4.9°C 70% 4.0 mph SW6.4 kmh SW 7.0 mph11.3 kmh 30.12 in1020.0 mb 0.00 in0.0 mm 0.00 in0.0 mm 0.00 in0.0 mm
09:53 AM 31.7°F-0.2°C 23.1°F-4.9°C 70% 2.0 mph SSW3.2 kmh SSW 7.0 mph11.3 kmh 30.11 in1019.6 mb 0.00 in0.0 mm 0.00 in0.0 mm 0.00 in0.0 mm
09:55 AM 31.8°F-0.1°C 23.5°F-4.7°C 71% 5.0 mph SSW8.0 kmh SSW 7.0 mph11.3 kmh 30.11 in1019.6 mb 0.00 in0.0 mm 0.00 in0.0 mm 0.00 in0.0 mm
09:57 AM 31.9°F-0.1°C 23.2°F-4.9°C 70% 1.0 mph SW1.6 kmh SW 9.0 mph14.5 kmh 30.11 in1019.6 mb 0.00 in0.0 mm 0.00 in0.0 mm 0.00 in0.0 mm
09:59 AM 32.0°F0.0°C 23.7°F-4.6°C 71% 3.0 mph S4.8 kmh S 9.0 mph14.5 kmh 30.11 in1019.6 mb 0.00 in0.0 mm 0.00 in0.0 mm 0.00 in0.0 mm
10:01 AM 32.0°F0.0°C 23.3°F-4.8°C 70% 3.0 mph SW4.8 kmh SW 9.0 mph14.5 kmh 30.11 in1019.6 mb 0.00 in0.0 mm 0.00 in0.0 mm 0.00 in0.0 mm
10:03 AM 32.1°F0.1°C 23.1°F-4.9°C 69% 3.0 mph SSW4.8 kmh SSW 9.0 mph14.5 kmh 30.11 in1019.6 mb 0.00 in0.0 mm 0.00 in0.0 mm 0.00 in0.0 mm
10:05 AM 32.1°F0.1°C 23.4°F-4.8°C 70% 1.0 mph S1.6 kmh S 9.0 mph14.5 kmh 30.11 in1019.6 mb 0.00 in0.0 mm 0.00 in0.0 mm 0.00 in0.0 mm
10:07 AM 32.3°F0.2°C 23.6°F-4.7°C 70% Calm Calm 9.0 mph14.5 kmh 30.11 in1019.6 mb 0.00 in0.0 mm 0.00 in0.0 mm 0.00 in0.0 mm
10:09 AM 32.3°F0.2°C 23.6°F-4.7°C 70% 2.0 mph SW3.2 kmh SW 9.0 mph14.5 kmh 30.12 in1020.0 mb 0.00 in0.0 mm 0.00 in0.0 mm 0.00 in0.0 mm
10:11 AM 32.4°F0.2°C 23.7°F-4.6°C 70% 4.0 mph S6.4 kmh S 9.0 mph14.5 kmh 30.12 in1020.0 mb 0.00 in0.0 mm 0.00 in0.0 mm 0.00 in0.0 mm
10:13 AM 32.6°F0.3°C 23.9°F-4.5°C 70% 3.0 mph SSW4.8 kmh SSW 9.0 mph14.5 kmh 30.12 in1020.0 mb 0.00 in0.0 mm 0.00 in0.0 mm 0.00 in0.0 mm
10:15 AM 32.6°F0.3°C 23.6°F-4.7°C 69% 3.0 mph SSW4.8 kmh SSW 11.0 mph17.7 kmh 30.11 in1019.6 mb 0.00 in0.0 mm 0.00 in0.0 mm 0.00 in0.0 mm
10:17 AM 32.7°F0.4°C 23.3°F-4.8°C 68% 1.0 mph WSW1.6 kmh WSW 11.0 mph17.7 kmh 30.11 in1019.6 mb 0.00 in0.0 mm 0.00 in0.0 mm 0.00 in0.0 mm
10:19 AM 32.8°F0.4°C 23.4°F-4.8°C 68% 2.0 mph WSW3.2 kmh WSW 11.0 mph17.7 kmh 30.11 in1019.6 mb 0.00 in0.0 mm 0.00 in0.0 mm 0.00 in0.0 mm
10:21 AM 32.9°F0.5°C 23.9°F-4.5°C 69% 3.0 mph WSW4.8 kmh WSW 11.0 mph17.7 kmh 30.11 in1019.6 mb 0.00 in0.0 mm 0.00 in0.0 mm 0.00 in0.0 mm
10:23 AM 33.0°F0.6°C 23.3°F-4.8°C 67% 3.0 mph SE4.8 kmh SE 11.0 mph17.7 kmh 30.11 in1019.6 mb 0.00 in0.0 mm 0.00 in0.0 mm 0.00 in0.0 mm
10:25 AM 33.2°F0.7°C 23.8°F-4.6°C 68% 3.0 mph W4.8 kmh W 11.0 mph17.7 kmh 30.11 in1019.6 mb 0.00 in0.0 mm 0.00 in0.0 mm 0.00 in0.0 mm
10:27 AM 33.3°F0.7°C 23.5°F-4.7°C 67% 1.0 mph WSW1.6 kmh WSW 11.0 mph17.7 kmh 30.11 in1019.6 mb 0.00 in0.0 mm 0.00 in0.0 mm 0.00 in0.0 mm
10:29 AM 33.4°F0.8°C 23.6°F-4.7°C 67% 2.0 mph WSW3.2 kmh WSW 11.0 mph17.7 kmh 30.11 in1019.6 mb 0.00 in0.0 mm 0.00 in0.0 mm 0.00 in0.0 mm
10:31 AM 33.5°F0.8°C 23.7°F-4.6°C 67% 3.0 mph N4.8 kmh N 11.0 mph17.7 kmh 30.11 in1019.6 mb 0.00 in0.0 mm 0.00 in0.0 mm 0.00 in0.0 mm
10:33 AM 33.6°F0.9°C 23.8°F-4.6°C 67% 2.0 mph SSW3.2 kmh SSW 11.0 mph17.7 kmh 30.11 in1019.6 mb 0.00 in0.0 mm 0.00 in0.0 mm 0.00 in0.0 mm
10:35 AM 33.7°F0.9°C 23.6°F-4.7°C 66% 2.0 mph WSW3.2 kmh WSW 8.0 mph12.9 kmh 30.11 in1019.6 mb 0.00 in0.0 mm 0.00 in0.0 mm 0.00 in0.0 mm
10:37 AM 33.9°F1.1°C 23.8°F-4.6°C 66% 1.0 mph NW1.6 kmh NW 8.0 mph12.9 kmh 30.11 in1019.6 mb 0.00 in0.0 mm 0.00 in0.0 mm 0.00 in0.0 mm
10:39 AM 34.0°F1.1°C 23.9°F-4.5°C 66% 4.0 mph SSW6.4 kmh SSW 10.0 mph16.1 kmh 30.10 in1019.3 mb 0.00 in0.0 mm 0.00 in0.0 mm 0.00 in0.0 mm
10:41 AM 34.2°F1.2°C 23.7°F-4.6°C 65% 2.0 mph SW3.2 kmh SW 10.0 mph16.1 kmh 30.11 in1019.6 mb 0.00 in0.0 mm 0.00 in0.0 mm 0.00 in0.0 mm
10:43 AM 34.4°F1.3°C 23.9°F-4.5°C 65% 3.0 mph SW4.8 kmh SW 12.0 mph19.3 kmh 30.11 in1019.6 mb 0.00 in0.0 mm 0.00 in0.0 mm 0.00 in0.0 mm
10:45 AM 34.5°F1.4°C 24.0°F-4.4°C 65% 2.0 mph WSW3.2 kmh WSW 12.0 mph19.3 kmh 30.11 in1019.6 mb 0.00 in0.0 mm 0.00 in0.0 mm 0.00 in0.0 mm
10:47 AM 34.7°F1.5°C 24.2°F-4.3°C 65% 4.0 mph SW6.4 kmh SW 12.0 mph19.3 kmh 30.11 in1019.6 mb 0.00 in0.0 mm 0.00 in0.0 mm 0.00 in0.0 mm
10:49 AM 34.9°F1.6°C 24.0°F-4.4°C 64% 2.0 mph SW3.2 kmh SW 12.0 mph19.3 kmh 30.10 in1019.3 mb 0.00 in0.0 mm 0.00 in0.0 mm 0.00 in0.0 mm
10:51 AM 35.0°F1.7°C 24.1°F-4.4°C 64% 3.0 mph SW4.8 kmh SW 12.0 mph19.3 kmh 30.10 in1019.3 mb 0.00 in0.0 mm 0.00 in0.0 mm 0.00 in0.0 mm
10:53 AM 35.2°F1.8°C 24.3°F-4.3°C 64% 3.0 mph WNW4.8 kmh WNW 12.0 mph19.3 kmh 30.10 in1019.3 mb 0.00 in0.0 mm 0.00 in0.0 mm 0.00 in0.0 mm
10:55 AM 35.4°F1.9°C 24.1°F-4.4°C 63% 3.0 mph WSW4.8 kmh WSW 12.0 mph19.3 kmh 30.10 in1019.3 mb 0.00 in0.0 mm 0.00 in0.0 mm 0.00 in0.0 mm
10:57 AM 35.5°F1.9°C 24.2°F-4.3°C 63% 4.0 mph WSW6.4 kmh WSW 12.0 mph19.3 kmh 30.10 in1019.3 mb 0.00 in0.0 mm 0.00 in0.0 mm 0.00 in0.0 mm
10:59 AM 35.7°F2.1°C 24.0°F-4.4°C 62% 2.0 mph SW3.2 kmh SW 12.0 mph19.3 kmh 30.10 in1019.3 mb 0.00 in0.0 mm 0.00 in0.0 mm 0.00 in0.0 mm
11:01 AM 35.8°F2.1°C 24.5°F-4.2°C 63% 3.0 mph WSW4.8 kmh WSW 12.0 mph19.3 kmh 30.09 in1019.0 mb 0.00 in0.0 mm 0.00 in0.0 mm 0.00 in0.0 mm
11:03 AM 36.1°F2.3°C 24.7°F-4.1°C 63% 4.0 mph SSW6.4 kmh SSW 9.0 mph14.5 kmh 30.09 in1019.0 mb 0.00 in0.0 mm 0.00 in0.0 mm 0.00 in0.0 mm
11:05 AM 36.2°F2.3°C 24.5°F-4.2°C 62% 5.0 mph WNW8.0 kmh WNW 9.0 mph14.5 kmh 30.09 in1019.0 mb 0.00 in0.0 mm 0.00 in0.0 mm 0.00 in0.0 mm
11:07 AM 36.4°F2.4°C 23.9°F-4.5°C 60% 2.0 mph WSW3.2 kmh WSW 14.0 mph22.5 kmh 30.09 in1019.0 mb 0.00 in0.0 mm 0.00 in0.0 mm 0.00 in0.0 mm
11:09 AM 36.4°F2.4°C 24.3°F-4.3°C 61% 3.0 mph WSW4.8 kmh WSW 14.0 mph22.5 kmh 30.09 in1019.0 mb 0.00 in0.0 mm 0.00 in0.0 mm 0.00 in0.0 mm
11:11 AM 36.5°F2.5°C 23.6°F-4.7°C 59% 5.0 mph S8.0 kmh S 14.0 mph22.5 kmh 30.09 in1019.0 mb 0.00 in0.0 mm 0.00 in0.0 mm 0.00 in0.0 mm
11:13 AM 36.6°F2.6°C 23.6°F-4.7°C 59% 3.0 mph SW4.8 kmh SW 14.0 mph22.5 kmh 30.09 in1019.0 mb 0.00 in0.0 mm 0.00 in0.0 mm 0.00 in0.0 mm
11:15 AM 36.7°F2.6°C 23.7°F-4.6°C 59% 4.0 mph WSW6.4 kmh WSW 14.0 mph22.5 kmh 30.09 in1019.0 mb 0.00 in0.0 mm 0.00 in0.0 mm 0.00 in0.0 mm
11:17 AM 36.9°F2.7°C 24.3°F-4.3°C 60% 5.0 mph SSE8.0 kmh SSE 14.0 mph22.5 kmh 30.08 in1018.6 mb 0.00 in0.0 mm 0.00 in0.0 mm 0.00 in0.0 mm
11:19 AM 37.0°F2.8°C 24.8°F-4.0°C 61% 3.0 mph W4.8 kmh W 14.0 mph22.5 kmh 30.09 in1019.0 mb 0.00 in0.0 mm 0.00 in0.0 mm 0.00 in0.0 mm
11:21 AM 37.2°F2.9°C 25.0°F-3.9°C 61% 3.0 mph WNW4.8 kmh WNW 14.0 mph22.5 kmh 30.08 in1018.6 mb 0.00 in0.0 mm 0.00 in0.0 mm 0.00 in0.0 mm
11:23 AM 37.4°F3.0°C 24.8°F-4.0°C 60% 5.0 mph NW8.0 kmh NW 14.0 mph22.5 kmh 30.08 in1018.6 mb 0.00 in0.0 mm 0.00 in0.0 mm 0.00 in0.0 mm
11:25 AM 37.5°F3.1°C 24.5°F-4.2°C 59% 6.0 mph SW9.7 kmh SW 14.0 mph22.5 kmh 30.08 in1018.6 mb 0.00 in0.0 mm 0.00 in0.0 mm 0.00 in0.0 mm
11:27 AM 37.6°F3.1°C 23.8°F-4.6°C 57% 2.0 mph WNW3.2 kmh WNW 14.0 mph22.5 kmh 30.08 in1018.6 mb 0.00 in0.0 mm 0.00 in0.0 mm 0.00 in0.0 mm
11:29 AM 37.5°F3.1°C 23.2°F-4.9°C 56% 4.0 mph W6.4 kmh W 15.0 mph24.1 kmh 30.07 in1018.3 mb 0.00 in0.0 mm 0.00 in0.0 mm 0.00 in0.0 mm
11:31 AM 37.6°F3.1°C 24.6°F-4.1°C 59% 3.0 mph WSW4.8 kmh WSW 15.0 mph24.1 kmh 30.07 in1018.3 mb 0.00 in0.0 mm 0.00 in0.0 mm 0.00 in0.0 mm
11:33 AM 37.6°F3.1°C 23.8°F-4.6°C 57% 5.0 mph SW8.0 kmh SW 15.0 mph24.1 kmh 30.07 in1018.3 mb 0.00 in0.0 mm 0.00 in0.0 mm 0.00 in0.0 mm
11:35 AM 37.6°F3.1°C 23.3°F-4.8°C 56% 2.0 mph SW3.2 kmh SW 15.0 mph24.1 kmh 30.07 in1018.3 mb 0.00 in0.0 mm 0.00 in0.0 mm 0.00 in0.0 mm
11:37 AM 37.7°F3.2°C 24.3°F-4.3°C 58% 2.0 mph NW3.2 kmh NW 15.0 mph24.1 kmh 30.07 in1018.3 mb 0.00 in0.0 mm 0.00 in0.0 mm 0.00 in0.0 mm
11:39 AM 37.9°F3.3°C 24.5°F-4.2°C 58% 8.0 mph SW12.9 kmh SW 15.0 mph24.1 kmh 30.07 in1018.3 mb 0.00 in0.0 mm 0.00 in0.0 mm 0.00 in0.0 mm
11:41 AM 38.0°F3.3°C 23.3°F-4.8°C 55% 4.0 mph SW6.4 kmh SW 15.0 mph24.1 kmh 30.07 in1018.3 mb 0.00 in0.0 mm 0.00 in0.0 mm 0.00 in0.0 mm
11:43 AM 38.1°F3.4°C 24.2°F-4.3°C 57% 3.0 mph SW4.8 kmh SW 15.0 mph24.1 kmh 30.06 in1017.9 mb 0.00 in0.0 mm 0.00 in0.0 mm 0.00 in0.0 mm
11:45 AM 38.2°F3.4°C 23.9°F-4.5°C 56% 2.0 mph WSW3.2 kmh WSW 15.0 mph24.1 kmh 30.07 in1018.3 mb 0.00 in0.0 mm 0.00 in0.0 mm 0.00 in0.0 mm
11:47 AM 38.4°F3.6°C 24.1°F-4.4°C 56% 1.0 mph SW1.6 kmh SW 15.0 mph24.1 kmh 30.06 in1017.9 mb 0.00 in0.0 mm 0.00 in0.0 mm 0.00 in0.0 mm
11:49 AM 38.5°F3.6°C 24.2°F-4.3°C 56% 6.0 mph W9.7 kmh W 14.0 mph22.5 kmh 30.06 in1017.9 mb 0.00 in0.0 mm 0.00 in0.0 mm 0.00 in0.0 mm
11:51 AM 38.6°F3.7°C 23.8°F-4.6°C 55% 3.0 mph S4.8 kmh S 15.0 mph24.1 kmh 30.06 in1017.9 mb 0.00 in0.0 mm 0.00 in0.0 mm 0.00 in0.0 mm
11:53 AM 38.7°F3.7°C 24.4°F-4.2°C 56% 8.0 mph SW12.9 kmh SW 15.0 mph24.1 kmh 30.06 in1017.9 mb 0.00 in0.0 mm 0.00 in0.0 mm 0.00 in0.0 mm
11:55 AM 38.8°F3.8°C 23.6°F-4.7°C 54% 5.0 mph S8.0 kmh S 15.0 mph24.1 kmh 30.06 in1017.9 mb 0.00 in0.0 mm 0.00 in0.0 mm 0.00 in0.0 mm
11:57 AM 38.9°F3.8°C 23.7°F-4.6°C 54% 2.0 mph NW3.2 kmh NW 18.0 mph29.0 kmh 30.06 in1017.9 mb 0.00 in0.0 mm 0.00 in0.0 mm 0.00 in0.0 mm
11:59 AM 38.9°F3.8°C 23.7°F-4.6°C 54% 11.0 mph SW17.7 kmh SW 18.0 mph29.0 kmh 30.06 in1017.9 mb 0.00 in0.0 mm 0.00 in0.0 mm 0.00 in0.0 mm
12:01 PM 38.9°F3.8°C 24.1°F-4.4°C 55% 6.0 mph SW9.7 kmh SW 18.0 mph29.0 kmh 30.06 in1017.9 mb 0.00 in0.0 mm 0.00 in0.0 mm 0.00 in0.0 mm
12:03 PM 38.9°F3.8°C 23.7°F-4.6°C 54% 4.0 mph SW6.4 kmh SW 18.0 mph29.0 kmh 30.06 in1017.9 mb 0.00 in0.0 mm 0.00 in0.0 mm 0.00 in0.0 mm
12:05 PM 38.8°F3.8°C 22.7°F-5.2°C 52% 4.0 mph WNW6.4 kmh WNW 21.0 mph33.8 kmh 30.06 in1017.9 mb 0.00 in0.0 mm 0.00 in0.0 mm 0.00 in0.0 mm
12:07 PM 38.8°F3.8°C 23.2°F-4.9°C 53% 10.0 mph WSW16.1 kmh WSW 21.0 mph33.8 kmh 30.06 in1017.9 mb 0.00 in0.0 mm 0.00 in0.0 mm 0.00 in0.0 mm
12:09 PM 38.8°F3.8°C 23.2°F-4.9°C 53% 4.0 mph S6.4 kmh S 21.0 mph33.8 kmh 30.05 in1017.6 mb 0.00 in0.0 mm 0.00 in0.0 mm 0.00 in0.0 mm
12:11 PM 38.8°F3.8°C 23.6°F-4.7°C 54% 5.0 mph SW8.0 kmh SW 21.0 mph33.8 kmh 30.05 in1017.6 mb 0.00 in0.0 mm 0.00 in0.0 mm 0.00 in0.0 mm
12:13 PM 38.8°F3.8°C 23.2°F-4.9°C 53% 6.0 mph W9.7 kmh W 21.0 mph33.8 kmh 30.05 in1017.6 mb 0.00 in0.0 mm 0.00 in0.0 mm 0.00 in0.0 mm
12:15 PM 38.9°F3.8°C 23.2°F-4.9°C 53% 6.0 mph W9.7 kmh W 21.0 mph33.8 kmh 30.05 in1017.6 mb 0.00 in0.0 mm 0.00 in0.0 mm 0.00 in0.0 mm
12:17 PM 38.9°F3.8°C 23.2°F-4.9°C 53% 4.0 mph W6.4 kmh W 21.0 mph33.8 kmh 30.05 in1017.6 mb 0.00 in0.0 mm 0.00 in0.0 mm 0.00 in0.0 mm
12:19 PM 39.0°F3.9°C 23.8°F-4.6°C 54% 1.0 mph WNW1.6 kmh WNW 21.0 mph33.8 kmh 30.05 in1017.6 mb 0.00 in0.0 mm 0.00 in0.0 mm 0.00 in0.0 mm
12:21 PM 39.1°F3.9°C 23.4°F-4.8°C 53% 10.0 mph WSW16.1 kmh WSW 21.0 mph33.8 kmh 30.05 in1017.6 mb 0.00 in0.0 mm 0.00 in0.0 mm 0.00 in0.0 mm
12:23 PM 39.1°F3.9°C 23.0°F-5.0°C 52% 4.0 mph SSW6.4 kmh SSW 21.0 mph33.8 kmh 30.04 in1017.3 mb 0.00 in0.0 mm 0.00 in0.0 mm 0.00 in0.0 mm
12:25 PM 39.2°F4.0°C 23.1°F-4.9°C 52% 10.0 mph WSW16.1 kmh WSW 15.0 mph24.1 kmh 30.04 in1017.3 mb 0.00 in0.0 mm 0.00 in0.0 mm 0.00 in0.0 mm
12:27 PM 39.3°F4.1°C 23.6°F-4.7°C 53% 6.0 mph W9.7 kmh W 15.0 mph24.1 kmh 30.04 in1017.3 mb 0.00 in0.0 mm 0.00 in0.0 mm 0.00 in0.0 mm
12:29 PM 39.4°F4.1°C 23.7°F-4.6°C 53% 5.0 mph NW8.0 kmh NW 15.0 mph24.1 kmh 30.05 in1017.6 mb 0.00 in0.0 mm 0.00 in0.0 mm 0.00 in0.0 mm
12:31 PM 39.4°F4.1°C 23.3°F-4.8°C 52% 7.0 mph SW11.3 kmh SW 15.0 mph24.1 kmh 30.04 in1017.3 mb 0.00 in0.0 mm 0.00 in0.0 mm 0.00 in0.0 mm
12:33 PM 39.5°F4.2°C 23.3°F-4.8°C 52% 2.0 mph WSW3.2 kmh WSW 15.0 mph24.1 kmh 30.04 in1017.3 mb 0.00 in0.0 mm 0.00 in0.0 mm 0.00 in0.0 mm
12:35 PM 39.5°F4.2°C 23.3°F-4.8°C 52% 6.0 mph SW9.7 kmh SW 15.0 mph24.1 kmh 30.04 in1017.3 mb 0.00 in0.0 mm 0.00 in0.0 mm 0.00 in0.0 mm
12:37 PM 39.5°F4.2°C 23.3°F-4.8°C 52% 4.0 mph SW6.4 kmh SW 15.0 mph24.1 kmh 30.04 in1017.3 mb 0.00 in0.0 mm 0.00 in0.0 mm 0.00 in0.0 mm
12:39 PM 39.6°F4.2°C 23.0°F-5.0°C 51% 3.0 mph WSW4.8 kmh WSW 15.0 mph24.1 kmh 30.04 in1017.3 mb 0.00 in0.0 mm 0.00 in0.0 mm 0.00 in0.0 mm
12:41 PM 39.6°F4.2°C 23.4°F-4.8°C 52% 4.0 mph S6.4 kmh S 15.0 mph24.1 kmh 30.04 in1017.3 mb 0.00 in0.0 mm 0.00 in0.0 mm 0.00 in0.0 mm
12:43 PM 39.7°F4.3°C 23.5°F-4.7°C 52% 8.0 mph NW12.9 kmh NW 15.0 mph24.1 kmh 30.04 in1017.3 mb 0.00 in0.0 mm 0.00 in0.0 mm 0.00 in0.0 mm
12:45 PM 39.8°F4.3°C 23.6°F-4.7°C 52% 2.0 mph WSW3.2 kmh WSW 15.0 mph24.1 kmh 30.04 in1017.3 mb 0.00 in0.0 mm 0.00 in0.0 mm 0.00 in0.0 mm
12:47 PM 39.9°F4.4°C 23.7°F-4.6°C 52% 5.0 mph SW8.0 kmh SW 15.0 mph24.1 kmh 30.03 in1016.9 mb 0.00 in0.0 mm 0.00 in0.0 mm 0.00 in0.0 mm
12:49 PM 40.1°F4.5°C 22.5°F-5.3°C 49% 12.0 mph S19.3 kmh S 17.0 mph27.4 kmh 30.03 in1016.9 mb 0.00 in0.0 mm 0.00 in0.0 mm 0.00 in0.0 mm
12:51 PM 40.4°F4.7°C 23.7°F-4.6°C 51% 8.0 mph WSW12.9 kmh WSW 17.0 mph27.4 kmh 30.03 in1016.9 mb 0.00 in0.0 mm 0.00 in0.0 mm 0.00 in0.0 mm
12:53 PM 40.8°F4.9°C 24.1°F-4.4°C 51% 2.0 mph WSW3.2 kmh WSW 18.0 mph29.0 kmh 30.03 in1016.9 mb 0.00 in0.0 mm 0.00 in0.0 mm 0.00 in0.0 mm
12:55 PM 41.3°F5.2°C 24.6°F-4.1°C 51% 5.0 mph WNW8.0 kmh WNW 18.0 mph29.0 kmh 30.03 in1016.9 mb 0.00 in0.0 mm 0.00 in0.0 mm 0.00 in0.0 mm
12:57 PM 41.7°F5.4°C 24.0°F-4.4°C 49% 4.0 mph SW6.4 kmh SW 18.0 mph29.0 kmh 30.03 in1016.9 mb 0.00 in0.0 mm 0.00 in0.0 mm 0.00 in0.0 mm
12:59 PM 42.1°F5.6°C 24.3°F-4.3°C 49% 6.0 mph SW9.7 kmh SW 18.0 mph29.0 kmh 30.03 in1016.9 mb 0.00 in0.0 mm 0.00 in0.0 mm 0.00 in0.0 mm
01:01 PM 42.3°F5.7°C 24.0°F-4.4°C 48% 6.0 mph W9.7 kmh W 18.0 mph29.0 kmh 30.03 in1016.9 mb 0.00 in0.0 mm 0.00 in0.0 mm 0.00 in0.0 mm
01:03 PM 42.3°F5.7°C 23.5°F-4.7°C 47% 6.0 mph W9.7 kmh W 18.0 mph29.0 kmh 30.03 in1016.9 mb 0.00 in0.0 mm 0.00 in0.0 mm 0.00 in0.0 mm
01:05 PM 42.3°F5.7°C 23.5°F-4.7°C 47% 4.0 mph SW6.4 kmh SW 19.0 mph30.6 kmh 30.02 in1016.6 mb 0.00 in0.0 mm 0.00 in0.0 mm 0.00 in0.0 mm
01:07 PM 42.1°F5.6°C 22.8°F-5.1°C 46% 8.0 mph W12.9 kmh W 19.0 mph30.6 kmh 30.03 in1016.9 mb 0.00 in0.0 mm 0.00 in0.0 mm 0.00 in0.0 mm
01:09 PM 42.0°F5.6°C 22.2°F-5.4°C 45% 7.0 mph W11.3 kmh W 19.0 mph30.6 kmh 30.03 in1016.9 mb 0.00 in0.0 mm 0.00 in0.0 mm 0.00 in0.0 mm
01:11 PM 41.9°F5.5°C 22.6°F-5.2°C 46% 3.0 mph SE4.8 kmh SE 19.0 mph30.6 kmh 30.03 in1016.9 mb 0.00 in0.0 mm 0.00 in0.0 mm 0.00 in0.0 mm
01:13 PM 41.9°F5.5°C 22.6°F-5.2°C 46% 9.0 mph W14.5 kmh W 19.0 mph30.6 kmh 30.03 in1016.9 mb 0.00 in0.0 mm 0.00 in0.0 mm 0.00 in0.0 mm
01:15 PM 42.0°F5.6°C 23.7°F-4.6°C 48% 4.0 mph WSW6.4 kmh WSW 19.0 mph30.6 kmh 30.03 in1016.9 mb 0.00 in0.0 mm 0.00 in0.0 mm 0.00 in0.0 mm
01:17 PM 42.1°F5.6°C 23.8°F-4.6°C 48% 1.0 mph W1.6 kmh W 19.0 mph30.6 kmh 30.03 in1016.9 mb 0.00 in0.0 mm 0.00 in0.0 mm 0.00 in0.0 mm
01:19 PM 42.2°F5.7°C 23.4°F-4.8°C 47% 3.0 mph WSW4.8 kmh WSW 19.0 mph30.6 kmh 30.03 in1016.9 mb 0.00 in0.0 mm 0.00 in0.0 mm 0.00 in0.0 mm
01:21 PM 42.2°F5.7°C 22.9°F-5.1°C 46% 2.0 mph SW3.2 kmh SW 19.0 mph30.6 kmh 30.03 in1016.9 mb 0.00 in0.0 mm 0.00 in0.0 mm 0.00 in0.0 mm
01:23 PM 42.2°F5.7°C 23.9°F-4.5°C 48% 4.0 mph W6.4 kmh W 19.0 mph30.6 kmh 30.03 in1016.9 mb 0.00 in0.0 mm 0.00 in0.0 mm 0.00 in0.0 mm
01:25 PM 42.3°F5.7°C 24.0°F-4.4°C 48% 3.0 mph WSW4.8 kmh WSW 18.0 mph29.0 kmh 30.03 in1016.9 mb 0.00 in0.0 mm 0.00 in0.0 mm 0.00 in0.0 mm
01:27 PM 42.4°F5.8°C 24.1°F-4.4°C 48% 5.0 mph SW8.0 kmh SW 18.0 mph29.0 kmh 30.03 in1016.9 mb 0.00 in0.0 mm 0.00 in0.0 mm 0.00 in0.0 mm
01:29 PM 42.5°F5.8°C 23.7°F-4.6°C 47% 3.0 mph SSW4.8 kmh SSW 18.0 mph29.0 kmh 30.03 in1016.9 mb 0.00 in0.0 mm 0.00 in0.0 mm 0.00 in0.0 mm
01:31 PM 42.6°F5.9°C 23.8°F-4.6°C 47% 3.0 mph SE4.8 kmh SE 18.0 mph29.0 kmh 30.03 in1016.9 mb 0.00 in0.0 mm 0.00 in0.0 mm 0.00 in0.0 mm
01:33 PM 42.5°F5.8°C 23.7°F-4.6°C 47% 7.0 mph WSW11.3 kmh WSW 18.0 mph29.0 kmh 30.03 in1016.9 mb 0.00 in0.0 mm 0.00 in0.0 mm 0.00 in0.0 mm
01:35 PM 42.7°F5.9°C 24.4°F-4.2°C 48% 3.0 mph WNW4.8 kmh WNW 16.0 mph25.7 kmh 30.02 in1016.6 mb 0.00 in0.0 mm 0.00 in0.0 mm 0.00 in0.0 mm
01:37 PM 42.9°F6.1°C 23.6°F-4.7°C 46% 3.0 mph W4.8 kmh W 16.0 mph25.7 kmh 30.02 in1016.6 mb 0.00 in0.0 mm 0.00 in0.0 mm 0.00 in0.0 mm
01:39 PM 43.0°F6.1°C 24.2°F-4.3°C 47% 3.0 mph SW4.8 kmh SW 16.0 mph25.7 kmh 30.02 in1016.6 mb 0.00 in0.0 mm 0.00 in0.0 mm 0.00 in0.0 mm
01:41 PM 43.1°F6.2°C 23.2°F-4.9°C 45% 6.0 mph S9.7 kmh S 19.0 mph30.6 kmh 30.02 in1016.6 mb 0.00 in0.0 mm 0.00 in0.0 mm 0.00 in0.0 mm
01:43 PM 43.1°F6.2°C 23.2°F-4.9°C 45% 8.0 mph WNW12.9 kmh WNW 19.0 mph30.6 kmh 30.03 in1016.9 mb 0.00 in0.0 mm 0.00 in0.0 mm 0.00 in0.0 mm
01:45 PM 43.1°F6.2°C 23.2°F-4.9°C 45% 10.0 mph W16.1 kmh W 19.0 mph30.6 kmh 30.03 in1016.9 mb 0.00 in0.0 mm 0.00 in0.0 mm 0.00 in0.0 mm
01:47 PM 43.0°F6.1°C 23.7°F-4.6°C 46% 8.0 mph WNW12.9 kmh WNW 19.0 mph30.6 kmh 30.02 in1016.6 mb 0.00 in0.0 mm 0.00 in0.0 mm 0.00 in0.0 mm
01:49 PM 42.9°F6.1°C 23.0°F-5.0°C 45% 12.0 mph WNW19.3 kmh WNW 19.0 mph30.6 kmh 30.03 in1016.9 mb 0.00 in0.0 mm 0.00 in0.0 mm 0.00 in0.0 mm
01:51 PM 43.0°F6.1°C 23.1°F-4.9°C 45% 9.0 mph W14.5 kmh W 19.0 mph30.6 kmh 30.02 in1016.6 mb 0.00 in0.0 mm 0.00 in0.0 mm 0.00 in0.0 mm
01:53 PM 43.0°F6.1°C 23.1°F-4.9°C 45% 6.0 mph SW9.7 kmh SW 19.0 mph30.6 kmh 30.02 in1016.6 mb 0.00 in0.0 mm 0.00 in0.0 mm 0.00 in0.0 mm
01:55 PM 42.9°F6.1°C 22.5°F-5.3°C 44% 11.0 mph W17.7 kmh W 19.0 mph30.6 kmh 30.02 in1016.6 mb 0.00 in0.0 mm 0.00 in0.0 mm 0.00 in0.0 mm
01:57 PM 42.8°F6.0°C 22.4°F-5.3°C 44% 9.0 mph W14.5 kmh W 19.0 mph30.6 kmh 30.02 in1016.6 mb 0.00 in0.0 mm 0.00 in0.0 mm 0.00 in0.0 mm
01:59 PM 42.7°F5.9°C 22.9°F-5.1°C 45% 7.0 mph SW11.3 kmh SW 19.0 mph30.6 kmh 30.02 in1016.6 mb 0.00 in0.0 mm 0.00 in0.0 mm 0.00 in0.0 mm
02:01 PM 42.8°F6.0°C 24.0°F-4.4°C 47% 6.0 mph W9.7 kmh W 19.0 mph30.6 kmh 30.02 in1016.6 mb 0.00 in0.0 mm 0.00 in0.0 mm 0.00 in0.0 mm
02:03 PM 42.8°F6.0°C 22.9°F-5.1°C 45% 9.0 mph WNW14.5 kmh WNW 19.0 mph30.6 kmh 30.02 in1016.6 mb 0.00 in0.0 mm 0.00 in0.0 mm 0.00 in0.0 mm
02:05 PM 42.9°F6.1°C 23.0°F-5.0°C 45% 3.0 mph WNW4.8 kmh WNW 19.0 mph30.6 kmh 30.02 in1016.6 mb 0.00 in0.0 mm 0.00 in0.0 mm 0.00 in0.0 mm
02:07 PM 42.9°F6.1°C 24.1°F-4.4°C 47% 4.0 mph W6.4 kmh W 19.0 mph30.6 kmh 30.02 in1016.6 mb 0.00 in0.0 mm 0.00 in0.0 mm 0.00 in0.0 mm
02:09 PM 43.0°F6.1°C 23.7°F-4.6°C 46% 11.0 mph WSW17.7 kmh WSW 19.0 mph30.6 kmh 30.02 in1016.6 mb 0.00 in0.0 mm 0.00 in0.0 mm 0.00 in0.0 mm
02:11 PM 43.1°F6.2°C 23.7°F-4.6°C 46% 5.0 mph WNW8.0 kmh WNW 19.0 mph30.6 kmh 30.02 in1016.6 mb 0.00 in0.0 mm 0.00 in0.0 mm 0.00 in0.0 mm
02:13 PM 43.1°F6.2°C 23.2°F-4.9°C 45% 13.0 mph SW20.9 kmh SW 19.0 mph30.6 kmh 30.02 in1016.6 mb 0.00 in0.0 mm 0.00 in0.0 mm 0.00 in0.0 mm
02:17 PM 42.8°F6.0°C 22.9°F-5.1°C 45% 5.0 mph SW8.0 kmh SW 19.0 mph30.6 kmh 30.02 in1016.6 mb 0.00 in0.0 mm 0.00 in0.0 mm 0.00 in0.0 mm
02:19 PM 42.7°F5.9°C 22.9°F-5.1°C 45% 8.0 mph WNW12.9 kmh WNW 19.0 mph30.6 kmh 30.02 in1016.6 mb 0.00 in0.0 mm 0.00 in0.0 mm 0.00 in0.0 mm
02:23 PM 42.7°F5.9°C 22.9°F-5.1°C 45% 7.0 mph SW11.3 kmh SW 19.0 mph30.6 kmh 30.02 in1016.6 mb 0.00 in0.0 mm 0.00 in0.0 mm 0.00 in0.0 mm
02:25 PM 42.6°F5.9°C 23.3°F-4.8°C 46% 9.0 mph W14.5 kmh W 19.0 mph30.6 kmh 30.02 in1016.6 mb 0.00 in0.0 mm 0.00 in0.0 mm 0.00 in0.0 mm
02:27 PM 42.5°F5.8°C 23.2°F-4.9°C 46% 3.0 mph WSW4.8 kmh WSW 19.0 mph30.6 kmh 30.02 in1016.6 mb 0.00 in0.0 mm 0.00 in0.0 mm 0.00 in0.0 mm
02:29 PM 42.4°F5.8°C 23.1°F-4.9°C 46% 8.0 mph WNW12.9 kmh WNW 19.0 mph30.6 kmh 30.02 in1016.6 mb 0.00 in0.0 mm 0.00 in0.0 mm 0.00 in0.0 mm
02:31 PM 42.2°F5.7°C 23.4°F-4.8°C 47% 8.0 mph WSW12.9 kmh WSW 19.0 mph30.6 kmh 30.02 in1016.6 mb 0.00 in0.0 mm 0.00 in0.0 mm 0.00 in0.0 mm
02:33 PM 42.2°F5.7°C 23.4°F-4.8°C 47% 12.0 mph W19.3 kmh W 19.0 mph30.6 kmh 30.02 in1016.6 mb 0.00 in0.0 mm 0.00 in0.0 mm 0.00 in0.0 mm
02:35 PM 42.3°F5.7°C 23.5°F-4.7°C 47% 8.0 mph WNW12.9 kmh WNW 21.0 mph33.8 kmh 30.02 in1016.6 mb 0.00 in0.0 mm 0.00 in0.0 mm 0.00 in0.0 mm
02:37 PM 42.3°F5.7°C 23.0°F-5.0°C 46% 8.0 mph W12.9 kmh W 21.0 mph33.8 kmh 30.02 in1016.6 mb 0.00 in0.0 mm 0.00 in0.0 mm 0.00 in0.0 mm
02:39 PM 42.4°F5.8°C 23.6°F-4.7°C 47% 6.0 mph W9.7 kmh W 21.0 mph33.8 kmh 30.02 in1016.6 mb 0.00 in0.0 mm 0.00 in0.0 mm 0.00 in0.0 mm
02:41 PM 42.5°F5.8°C 23.7°F-4.6°C 47% 9.0 mph W14.5 kmh W 21.0 mph33.8 kmh 30.02 in1016.6 mb 0.00 in0.0 mm 0.00 in0.0 mm 0.00 in0.0 mm
02:43 PM 42.7°F5.9°C 22.9°F-5.1°C 45% 7.0 mph WSW11.3 kmh WSW 21.0 mph33.8 kmh 30.02 in1016.6 mb 0.00 in0.0 mm 0.00 in0.0 mm 0.00 in0.0 mm
02:45 PM 42.7°F5.9°C 23.4°F-4.8°C 46% 9.0 mph W14.5 kmh W 21.0 mph33.8 kmh 30.02 in1016.6 mb 0.00 in0.0 mm 0.00 in0.0 mm 0.00 in0.0 mm
02:47 PM 42.8°F6.0°C 22.9°F-5.1°C 45% 7.0 mph SW11.3 kmh SW 24.0 mph38.6 kmh 30.02 in1016.6 mb 0.00 in0.0 mm 0.00 in0.0 mm 0.00 in0.0 mm
02:49 PM 42.8°F6.0°C 22.9°F-5.1°C 45% 7.0 mph W11.3 kmh W 24.0 mph38.6 kmh 30.02 in1016.6 mb 0.00 in0.0 mm 0.00 in0.0 mm 0.00 in0.0 mm
02:51 PM 42.7°F5.9°C 23.4°F-4.8°C 46% 7.0 mph WSW11.3 kmh WSW 24.0 mph38.6 kmh 30.02 in1016.6 mb 0.00 in0.0 mm 0.00 in0.0 mm 0.00 in0.0 mm
02:53 PM 42.6°F5.9°C 23.8°F-4.6°C 47% 11.0 mph W17.7 kmh W 24.0 mph38.6 kmh 30.03 in1016.9 mb 0.00 in0.0 mm 0.00 in0.0 mm 0.00 in0.0 mm
02:55 PM 42.5°F5.8°C 23.2°F-4.9°C 46% 21.0 mph W33.8 kmh W 24.0 mph38.6 kmh 30.02 in1016.6 mb 0.00 in0.0 mm 0.00 in0.0 mm 0.00 in0.0 mm
02:57 PM 42.3°F5.7°C 22.5°F-5.3°C 45% 9.0 mph WSW14.5 kmh WSW 24.0 mph38.6 kmh 30.03 in1016.9 mb 0.00 in0.0 mm 0.00 in0.0 mm 0.00 in0.0 mm
02:59 PM 42.1°F5.6°C 22.8°F-5.1°C 46% 9.0 mph WSW14.5 kmh WSW 24.0 mph38.6 kmh 30.02 in1016.6 mb 0.00 in0.0 mm 0.00 in0.0 mm 0.00 in0.0 mm
03:01 PM 42.0°F5.6°C 22.7°F-5.2°C 46% 7.0 mph W11.3 kmh W 24.0 mph38.6 kmh 30.02 in1016.6 mb 0.00 in0.0 mm 0.00 in0.0 mm 0.00 in0.0 mm
03:03 PM 42.0°F5.6°C 23.2°F-4.9°C 47% 4.0 mph SW6.4 kmh SW 24.0 mph38.6 kmh 30.03 in1016.9 mb 0.00 in0.0 mm 0.00 in0.0 mm 0.00 in0.0 mm
03:05 PM 41.9°F5.5°C 23.2°F-4.9°C 47% 7.0 mph WSW11.3 kmh WSW 24.0 mph38.6 kmh 30.03 in1016.9 mb 0.00 in0.0 mm 0.00 in0.0 mm 0.00 in0.0 mm
03:07 PM 41.8°F5.4°C 22.6°F-5.2°C 46% 14.0 mph S22.5 kmh S 24.0 mph38.6 kmh 30.03 in1016.9 mb 0.00 in0.0 mm 0.00 in0.0 mm 0.00 in0.0 mm
03:09 PM 41.7°F5.4°C 22.5°F-5.3°C 46% 3.0 mph W4.8 kmh W 24.0 mph38.6 kmh 30.03 in1016.9 mb 0.00 in0.0 mm 0.00 in0.0 mm 0.00 in0.0 mm
03:11 PM 41.6°F5.3°C 22.9°F-5.1°C 47% 6.0 mph SSE9.7 kmh SSE 24.0 mph38.6 kmh 30.03 in1016.9 mb 0.00 in0.0 mm 0.00 in0.0 mm 0.00 in0.0 mm
03:13 PM 41.5°F5.3°C 23.3°F-4.8°C 48% 8.0 mph WNW12.9 kmh WNW 24.0 mph38.6 kmh 30.03 in1016.9 mb 0.00 in0.0 mm 0.00 in0.0 mm 0.00 in0.0 mm
03:15 PM 41.4°F5.2°C 23.2°F-4.9°C 48% 5.0 mph WNW8.0 kmh WNW 24.0 mph38.6 kmh 30.03 in1016.9 mb 0.00 in0.0 mm 0.00 in0.0 mm 0.00 in0.0 mm
03:17 PM 41.4°F5.2°C 23.2°F-4.9°C 48% 4.0 mph WNW6.4 kmh WNW 19.0 mph30.6 kmh 30.03 in1016.9 mb 0.00 in0.0 mm 0.00 in0.0 mm 0.00 in0.0 mm
03:19 PM 41.4°F5.2°C 23.7°F-4.6°C 49% 11.0 mph W17.7 kmh W 19.0 mph30.6 kmh 30.03 in1016.9 mb 0.00 in0.0 mm 0.00 in0.0 mm 0.00 in0.0 mm
03:21 PM 41.4°F5.2°C 23.2°F-4.9°C 48% 9.0 mph NW14.5 kmh NW 19.0 mph30.6 kmh 30.04 in1017.3 mb 0.00 in0.0 mm 0.00 in0.0 mm 0.00 in0.0 mm
03:23 PM 41.4°F5.2°C 23.2°F-4.9°C 48% 4.0 mph WSW6.4 kmh WSW 19.0 mph30.6 kmh 30.04 in1017.3 mb 0.00 in0.0 mm 0.00 in0.0 mm 0.00 in0.0 mm
03:25 PM 41.4°F5.2°C 23.7°F-4.6°C 49% 4.0 mph W6.4 kmh W 19.0 mph30.6 kmh 30.03 in1016.9 mb 0.00 in0.0 mm 0.00 in0.0 mm 0.00 in0.0 mm
03:27 PM 41.4°F5.2°C 24.2°F-4.3°C 50% 3.0 mph WNW4.8 kmh WNW 15.0 mph24.1 kmh 30.03 in1016.9 mb 0.00 in0.0 mm 0.00 in0.0 mm 0.00 in0.0 mm
03:29 PM 41.3°F5.2°C 23.1°F-4.9°C 48% 4.0 mph WSW6.4 kmh WSW 15.0 mph24.1 kmh 30.03 in1016.9 mb 0.00 in0.0 mm 0.00 in0.0 mm 0.00 in0.0 mm
03:31 PM 41.3°F5.2°C 23.1°F-4.9°C 48% 3.0 mph WSW4.8 kmh WSW 15.0 mph24.1 kmh 30.04 in1017.3 mb 0.00 in0.0 mm 0.00 in0.0 mm 0.00 in0.0 mm
03:33 PM 41.1°F5.1°C 23.4°F-4.8°C 49% 7.0 mph W11.3 kmh W 15.0 mph24.1 kmh 30.04 in1017.3 mb 0.00 in0.0 mm 0.00 in0.0 mm 0.00 in0.0 mm
03:35 PM 41.1°F5.1°C 23.4°F-4.8°C 49% 7.0 mph WNW11.3 kmh WNW 15.0 mph24.1 kmh 30.03 in1016.9 mb 0.00 in0.0 mm 0.00 in0.0 mm 0.00 in0.0 mm
03:37 PM 41.1°F5.1°C 24.4°F-4.2°C 51% 3.0 mph W4.8 kmh W 14.0 mph22.5 kmh 30.04 in1017.3 mb 0.00 in0.0 mm 0.00 in0.0 mm 0.00 in0.0 mm
03:39 PM 41.0°F5.0°C 23.8°F-4.6°C 50% 5.0 mph WNW8.0 kmh WNW 14.0 mph22.5 kmh 30.04 in1017.3 mb 0.00 in0.0 mm 0.00 in0.0 mm 0.00 in0.0 mm
03:41 PM 40.9°F4.9°C 23.7°F-4.6°C 50% 9.0 mph W14.5 kmh W 14.0 mph22.5 kmh 30.04 in1017.3 mb 0.00 in0.0 mm 0.00 in0.0 mm 0.00 in0.0 mm
03:43 PM 40.9°F4.9°C 23.7°F-4.6°C 50% 6.0 mph W9.7 kmh W 16.0 mph25.7 kmh 30.04 in1017.3 mb 0.00 in0.0 mm 0.00 in0.0 mm 0.00 in0.0 mm
03:45 PM 40.8°F4.9°C 23.6°F-4.7°C 50% 7.0 mph SW11.3 kmh SW 16.0 mph25.7 kmh 30.04 in1017.3 mb 0.00 in0.0 mm 0.00 in0.0 mm 0.00 in0.0 mm
03:47 PM 40.8°F4.9°C 23.6°F-4.7°C 50% 7.0 mph WSW11.3 kmh WSW 16.0 mph25.7 kmh 30.04 in1017.3 mb 0.00 in0.0 mm 0.00 in0.0 mm 0.00 in0.0 mm
03:49 PM 40.6°F4.8°C 23.4°F-4.8°C 50% 8.0 mph WSW12.9 kmh WSW 16.0 mph25.7 kmh 30.04 in1017.3 mb 0.00 in0.0 mm 0.00 in0.0 mm 0.00 in0.0 mm
03:51 PM 40.6°F4.8°C 23.9°F-4.5°C 51% 14.0 mph W22.5 kmh W 16.0 mph25.7 kmh 30.04 in1017.3 mb 0.00 in0.0 mm 0.00 in0.0 mm 0.00 in0.0 mm
03:53 PM 40.5°F4.7°C 23.3°F-4.8°C 50% 4.0 mph W6.4 kmh W 16.0 mph25.7 kmh 30.04 in1017.3 mb 0.00 in0.0 mm 0.00 in0.0 mm 0.00 in0.0 mm
03:55 PM 40.4°F4.7°C 23.7°F-4.6°C 51% 2.0 mph WSW3.2 kmh WSW 16.0 mph25.7 kmh 30.03 in1016.9 mb 0.00 in0.0 mm 0.00 in0.0 mm 0.00 in0.0 mm
03:57 PM 40.4°F4.7°C 23.7°F-4.6°C 51% 7.0 mph WNW11.3 kmh WNW 16.0 mph25.7 kmh 30.03 in1016.9 mb 0.00 in0.0 mm 0.00 in0.0 mm 0.00 in0.0 mm
03:59 PM 40.3°F4.6°C 23.2°F-4.9°C 50% 10.0 mph W16.1 kmh W 16.0 mph25.7 kmh 30.03 in1016.9 mb 0.00 in0.0 mm 0.00 in0.0 mm 0.00 in0.0 mm
04:01 PM 40.3°F4.6°C 23.6°F-4.7°C 51% 3.0 mph WSW4.8 kmh WSW 16.0 mph25.7 kmh 30.03 in1016.9 mb 0.00 in0.0 mm 0.00 in0.0 mm 0.00 in0.0 mm
04:03 PM 40.2°F4.6°C 24.0°F-4.4°C 52% 4.0 mph WSW6.4 kmh WSW 16.0 mph25.7 kmh 30.03 in1016.9 mb 0.00 in0.0 mm 0.00 in0.0 mm 0.00 in0.0 mm
04:05 PM 40.1°F4.5°C 23.4°F-4.8°C 51% 9.0 mph SSW14.5 kmh SSW 16.0 mph25.7 kmh 30.03 in1016.9 mb 0.00 in0.0 mm 0.00 in0.0 mm 0.00 in0.0 mm
04:07 PM 40.1°F4.5°C 23.4°F-4.8°C 51% 12.0 mph WSW19.3 kmh WSW 16.0 mph25.7 kmh 30.03 in1016.9 mb 0.00 in0.0 mm 0.00 in0.0 mm 0.00 in0.0 mm
04:09 PM 40.0°F4.4°C 23.3°F-4.8°C 51% 5.0 mph NNW8.0 kmh NNW 16.0 mph25.7 kmh 30.03 in1016.9 mb 0.00 in0.0 mm 0.00 in0.0 mm 0.00 in0.0 mm
04:11 PM 39.9°F4.4°C 23.7°F-4.6°C 52% 7.0 mph WSW11.3 kmh WSW 16.0 mph25.7 kmh 30.03 in1016.9 mb 0.00 in0.0 mm 0.00 in0.0 mm 0.00 in0.0 mm
04:13 PM 39.9°F4.4°C 23.7°F-4.6°C 52% 9.0 mph W14.5 kmh W 16.0 mph25.7 kmh 30.03 in1016.9 mb 0.00 in0.0 mm 0.00 in0.0 mm 0.00 in0.0 mm
04:15 PM 39.8°F4.3°C 23.6°F-4.7°C 52% 4.0 mph WSW6.4 kmh WSW 16.0 mph25.7 kmh 30.03 in1016.9 mb 0.00 in0.0 mm 0.00 in0.0 mm 0.00 in0.0 mm
04:17 PM 39.8°F4.3°C 23.6°F-4.7°C 52% 7.0 mph NW11.3 kmh NW 16.0 mph25.7 kmh 30.03 in1016.9 mb 0.00 in0.0 mm 0.00 in0.0 mm 0.00 in0.0 mm
04:19 PM 39.7°F4.3°C 24.0°F-4.4°C 53% 3.0 mph S4.8 kmh S 16.0 mph25.7 kmh 30.03 in1016.9 mb 0.00 in0.0 mm 0.00 in0.0 mm 0.00 in0.0 mm
04:21 PM 39.6°F4.2°C 23.4°F-4.8°C 52% 6.0 mph NW9.7 kmh NW 16.0 mph25.7 kmh 30.04 in1017.3 mb 0.00 in0.0 mm 0.00 in0.0 mm 0.00 in0.0 mm
04:23 PM 39.6°F4.2°C 24.3°F-4.3°C 54% 2.0 mph W3.2 kmh W 15.0 mph24.1 kmh 30.03 in1016.9 mb 0.00 in0.0 mm 0.00 in0.0 mm 0.00 in0.0 mm
04:25 PM 39.4°F4.1°C 24.2°F-4.3°C 54% 4.0 mph W6.4 kmh W 15.0 mph24.1 kmh 30.03 in1016.9 mb 0.00 in0.0 mm 0.00 in0.0 mm 0.00 in0.0 mm
04:27 PM 39.3°F4.1°C 24.1°F-4.4°C 54% 1.0 mph W1.6 kmh W 15.0 mph24.1 kmh 30.04 in1017.3 mb 0.00 in0.0 mm 0.00 in0.0 mm 0.00 in0.0 mm
04:29 PM 39.3°F4.1°C 23.6°F-4.7°C 53% 12.0 mph WSW19.3 kmh WSW 15.0 mph24.1 kmh 30.03 in1016.9 mb 0.00 in0.0 mm 0.00 in0.0 mm 0.00 in0.0 mm
04:31 PM 39.3°F4.1°C 23.6°F-4.7°C 53% 1.0 mph WSW1.6 kmh WSW 15.0 mph24.1 kmh 30.03 in1016.9 mb 0.00 in0.0 mm 0.00 in0.0 mm 0.00 in0.0 mm
04:33 PM 39.3°F4.1°C 23.6°F-4.7°C 53% 4.0 mph NW6.4 kmh NW 13.0 mph20.9 kmh 30.03 in1016.9 mb 0.00 in0.0 mm 0.00 in0.0 mm 0.00 in0.0 mm
04:35 PM 39.3°F4.1°C 23.2°F-4.9°C 52% 4.0 mph WSW6.4 kmh WSW 13.0 mph20.9 kmh 30.03 in1016.9 mb 0.00 in0.0 mm 0.00 in0.0 mm 0.00 in0.0 mm
04:37 PM 39.3°F4.1°C 23.6°F-4.7°C 53% 4.0 mph WSW6.4 kmh WSW 13.0 mph20.9 kmh 30.03 in1016.9 mb 0.00 in0.0 mm 0.00 in0.0 mm 0.00 in0.0 mm
04:39 PM 39.3°F4.1°C 23.6°F-4.7°C 53% 3.0 mph NW4.8 kmh NW 13.0 mph20.9 kmh 30.03 in1016.9 mb 0.00 in0.0 mm 0.00 in0.0 mm 0.00 in0.0 mm
04:41 PM 39.2°F4.0°C 23.5°F-4.7°C 53% 1.0 mph WSW1.6 kmh WSW 13.0 mph20.9 kmh 30.03 in1016.9 mb 0.00 in0.0 mm 0.00 in0.0 mm 0.00 in0.0 mm
04:43 PM 39.1°F3.9°C 24.3°F-4.3°C 55% 1.0 mph W1.6 kmh W 13.0 mph20.9 kmh 30.03 in1016.9 mb 0.00 in0.0 mm 0.00 in0.0 mm 0.00 in0.0 mm
04:45 PM 38.9°F3.8°C 23.7°F-4.6°C 54% 3.0 mph W4.8 kmh W 13.0 mph20.9 kmh 30.03 in1016.9 mb 0.00 in0.0 mm 0.00 in0.0 mm 0.00 in0.0 mm
04:47 PM 38.8°F3.8°C 23.6°F-4.7°C 54% 2.0 mph WSW3.2 kmh WSW 13.0 mph20.9 kmh 30.03 in1016.9 mb 0.00 in0.0 mm 0.00 in0.0 mm 0.00 in0.0 mm
04:49 PM 38.8°F3.8°C 23.6°F-4.7°C 54% 2.0 mph WSW3.2 kmh WSW 13.0 mph20.9 kmh 30.03 in1016.9 mb 0.00 in0.0 mm 0.00 in0.0 mm 0.00 in0.0 mm
04:51 PM 38.7°F3.7°C 23.9°F-4.5°C 55% 6.0 mph W9.7 kmh W 13.0 mph20.9 kmh 30.03 in1016.9 mb 0.00 in0.0 mm 0.00 in0.0 mm 0.00 in0.0 mm
04:53 PM 38.6°F3.7°C 23.4°F-4.8°C 54% 4.0 mph WSW6.4 kmh WSW 12.0 mph19.3 kmh 30.03 in1016.9 mb 0.00 in0.0 mm 0.00 in0.0 mm 0.00 in0.0 mm
04:55 PM 38.6°F3.7°C 23.4°F-4.8°C 54% 3.0 mph NW4.8 kmh NW 15.0 mph24.1 kmh 30.03 in1016.9 mb 0.00 in0.0 mm 0.00 in0.0 mm 0.00 in0.0 mm
04:57 PM 38.5°F3.6°C 22.9°F-5.1°C 53% 5.0 mph SW8.0 kmh SW 15.0 mph24.1 kmh 30.03 in1016.9 mb 0.00 in0.0 mm 0.00 in0.0 mm 0.00 in0.0 mm
04:59 PM 38.5°F3.6°C 23.3°F-4.8°C 54% 4.0 mph WSW6.4 kmh WSW 15.0 mph24.1 kmh 30.04 in1017.3 mb 0.00 in0.0 mm 0.00 in0.0 mm 0.00 in0.0 mm
05:01 PM 38.4°F3.6°C 23.2°F-4.9°C 54% 2.0 mph WSW3.2 kmh WSW 15.0 mph24.1 kmh 30.03 in1016.9 mb 0.00 in0.0 mm 0.00 in0.0 mm 0.00 in0.0 mm
05:03 PM 38.3°F3.5°C 23.1°F-4.9°C 54% 8.0 mph W12.9 kmh W 15.0 mph24.1 kmh 30.03 in1016.9 mb 0.00 in0.0 mm 0.00 in0.0 mm 0.00 in0.0 mm
05:05 PM 38.2°F3.4°C 23.0°F-5.0°C 54% 9.0 mph W14.5 kmh W 15.0 mph24.1 kmh 30.03 in1016.9 mb 0.00 in0.0 mm 0.00 in0.0 mm 0.00 in0.0 mm
05:07 PM 38.2°F3.4°C 23.0°F-5.0°C 54% 1.0 mph WSW1.6 kmh WSW 15.0 mph24.1 kmh 30.03 in1016.9 mb 0.00 in0.0 mm 0.00 in0.0 mm 0.00 in0.0 mm
05:09 PM 38.1°F3.4°C 23.4°F-4.8°C 55% 4.0 mph SW6.4 kmh SW 15.0 mph24.1 kmh 30.04 in1017.3 mb 0.00 in0.0 mm 0.00 in0.0 mm 0.00 in0.0 mm
05:11 PM 37.9°F3.3°C 23.2°F-4.9°C 55% 5.0 mph SW8.0 kmh SW 15.0 mph24.1 kmh 30.04 in1017.3 mb 0.00 in0.0 mm 0.00 in0.0 mm 0.00 in0.0 mm
05:13 PM 37.9°F3.3°C 23.2°F-4.9°C 55% 11.0 mph W17.7 kmh W 15.0 mph24.1 kmh 30.04 in1017.3 mb 0.00 in0.0 mm 0.00 in0.0 mm 0.00 in0.0 mm
05:15 PM 37.9°F3.3°C 23.2°F-4.9°C 55% 4.0 mph W6.4 kmh W 12.0 mph19.3 kmh 30.04 in1017.3 mb 0.00 in0.0 mm 0.00 in0.0 mm 0.00 in0.0 mm
05:17 PM 37.9°F3.3°C 23.2°F-4.9°C 55% 5.0 mph SW8.0 kmh SW 12.0 mph19.3 kmh 30.04 in1017.3 mb 0.00 in0.0 mm 0.00 in0.0 mm 0.00 in0.0 mm
05:19 PM 37.9°F3.3°C 23.2°F-4.9°C 55% 2.0 mph WNW3.2 kmh WNW 12.0 mph19.3 kmh 30.04 in1017.3 mb 0.00 in0.0 mm 0.00 in0.0 mm 0.00 in0.0 mm
05:21 PM 37.8°F3.2°C 23.5°F-4.7°C 56% 3.0 mph WSW4.8 kmh WSW 12.0 mph19.3 kmh 30.04 in1017.3 mb 0.00 in0.0 mm 0.00 in0.0 mm 0.00 in0.0 mm
05:23 PM 37.7°F3.2°C 23.4°F-4.8°C 56% 4.0 mph W6.4 kmh W 12.0 mph19.3 kmh 30.04 in1017.3 mb 0.00 in0.0 mm 0.00 in0.0 mm 0.00 in0.0 mm
05:25 PM 37.5°F3.1°C 23.2°F-4.9°C 56% 3.0 mph W4.8 kmh W 10.0 mph16.1 kmh 30.04 in1017.3 mb 0.00 in0.0 mm 0.00 in0.0 mm 0.00 in0.0 mm
05:27 PM 37.4°F3.0°C 23.6°F-4.7°C 57% 2.0 mph W3.2 kmh W 10.0 mph16.1 kmh 30.04 in1017.3 mb 0.00 in0.0 mm 0.00 in0.0 mm 0.00 in0.0 mm
05:29 PM 37.3°F2.9°C 23.5°F-4.7°C 57% 4.0 mph W6.4 kmh W 10.0 mph16.1 kmh 30.04 in1017.3 mb 0.00 in0.0 mm 0.00 in0.0 mm 0.00 in0.0 mm
05:31 PM 37.2°F2.9°C 23.4°F-4.8°C 57% 3.0 mph WNW4.8 kmh WNW 10.0 mph16.1 kmh 30.05 in1017.6 mb 0.00 in0.0 mm 0.00 in0.0 mm 0.00 in0.0 mm
05:33 PM 37.1°F2.8°C 23.3°F-4.8°C 57% 7.0 mph WSW11.3 kmh WSW 10.0 mph16.1 kmh 30.04 in1017.3 mb 0.00 in0.0 mm 0.00 in0.0 mm 0.00 in0.0 mm
05:35 PM 37.1°F2.8°C 23.3°F-4.8°C 57% 4.0 mph SSW6.4 kmh SSW 7.0 mph11.3 kmh 30.05 in1017.6 mb 0.00 in0.0 mm 0.00 in0.0 mm 0.00 in0.0 mm
05:37 PM 37.1°F2.8°C 23.3°F-4.8°C 57% 2.0 mph WSW3.2 kmh WSW 9.0 mph14.5 kmh 30.05 in1017.6 mb 0.00 in0.0 mm 0.00 in0.0 mm 0.00 in0.0 mm
05:39 PM 37.1°F2.8°C 23.7°F-4.6°C 58% 4.0 mph W6.4 kmh W 9.0 mph14.5 kmh 30.05 in1017.6 mb 0.00 in0.0 mm 0.00 in0.0 mm 0.00 in0.0 mm
05:41 PM 37.1°F2.8°C 23.3°F-4.8°C 57% 2.0 mph W3.2 kmh W 9.0 mph14.5 kmh 30.05 in1017.6 mb 0.00 in0.0 mm 0.00 in0.0 mm 0.00 in0.0 mm
05:43 PM 37.2°F2.9°C 23.8°F-4.6°C 58% 6.0 mph W9.7 kmh W 9.0 mph14.5 kmh 30.05 in1017.6 mb 0.00 in0.0 mm 0.00 in0.0 mm 0.00 in0.0 mm
05:45 PM 37.2°F2.9°C 23.4°F-4.8°C 57% 6.0 mph W9.7 kmh W 9.0 mph14.5 kmh 30.05 in1017.6 mb 0.00 in0.0 mm 0.00 in0.0 mm 0.00 in0.0 mm
05:47 PM 37.1°F2.8°C 23.7°F-4.6°C 58% 7.0 mph W11.3 kmh W 12.0 mph19.3 kmh 30.05 in1017.6 mb 0.00 in0.0 mm 0.00 in0.0 mm 0.00 in0.0 mm
05:49 PM 37.2°F2.9°C 23.8°F-4.6°C 58% 4.0 mph W6.4 kmh W 12.0 mph19.3 kmh 30.05 in1017.6 mb 0.00 in0.0 mm 0.00 in0.0 mm 0.00 in0.0 mm
05:51 PM 37.2°F2.9°C 23.8°F-4.6°C 58% 4.0 mph W6.4 kmh W 12.0 mph19.3 kmh 30.05 in1017.6 mb 0.00 in0.0 mm 0.00 in0.0 mm 0.00 in0.0 mm
05:53 PM 37.1°F2.8°C 23.7°F-4.6°C 58% 2.0 mph W3.2 kmh W 12.0 mph19.3 kmh 30.05 in1017.6 mb 0.00 in0.0 mm 0.00 in0.0 mm 0.00 in0.0 mm
05:55 PM 37.0°F2.8°C 23.6°F-4.7°C 58% 8.0 mph WSW12.9 kmh WSW 12.0 mph19.3 kmh 30.05 in1017.6 mb 0.00 in0.0 mm 0.00 in0.0 mm 0.00 in0.0 mm
05:57 PM 37.0°F2.8°C 23.2°F-4.9°C 57% 1.0 mph WSW1.6 kmh WSW 12.0 mph19.3 kmh 30.05 in1017.6 mb 0.00 in0.0 mm 0.00 in0.0 mm 0.00 in0.0 mm
05:59 PM 37.0°F2.8°C 23.6°F-4.7°C 58% 2.0 mph W3.2 kmh W 12.0 mph19.3 kmh 30.05 in1017.6 mb 0.00 in0.0 mm 0.00 in0.0 mm 0.00 in0.0 mm
06:01 PM 36.9°F2.7°C 23.5°F-4.7°C 58% 2.0 mph W3.2 kmh W 12.0 mph19.3 kmh 30.05 in1017.6 mb 0.00 in0.0 mm 0.00 in0.0 mm 0.00 in0.0 mm
06:03 PM 36.8°F2.7°C 23.8°F-4.6°C 59% 3.0 mph WSW4.8 kmh WSW 12.0 mph19.3 kmh 30.05 in1017.6 mb 0.00 in0.0 mm 0.00 in0.0 mm 0.00 in0.0 mm
06:05 PM 36.7°F2.6°C 23.3°F-4.8°C 58% 2.0 mph WNW3.2 kmh WNW 12.0 mph19.3 kmh 30.06 in1017.9 mb 0.00 in0.0 mm 0.00 in0.0 mm 0.00 in0.0 mm
06:07 PM 36.6°F2.6°C 23.6°F-4.7°C 59% 3.0 mph W4.8 kmh W 10.0 mph16.1 kmh 30.06 in1017.9 mb 0.00 in0.0 mm 0.00 in0.0 mm 0.00 in0.0 mm
06:09 PM 36.6°F2.6°C 23.2°F-4.9°C 58% 6.0 mph WSW9.7 kmh WSW 10.0 mph16.1 kmh 30.06 in1017.9 mb 0.00 in0.0 mm 0.00 in0.0 mm 0.00 in0.0 mm
06:11 PM 36.6°F2.6°C 23.6°F-4.7°C 59% 3.0 mph W4.8 kmh W 10.0 mph16.1 kmh 30.06 in1017.9 mb 0.00 in0.0 mm 0.00 in0.0 mm 0.00 in0.0 mm
06:13 PM 36.6°F2.6°C 23.6°F-4.7°C 59% 3.0 mph W4.8 kmh W 10.0 mph16.1 kmh 30.06 in1017.9 mb 0.00 in0.0 mm 0.00 in0.0 mm 0.00 in0.0 mm
06:15 PM 36.6°F2.6°C 23.6°F-4.7°C 59% 2.0 mph W3.2 kmh W 10.0 mph16.1 kmh 30.06 in1017.9 mb 0.00 in0.0 mm 0.00 in0.0 mm 0.00 in0.0 mm
06:17 PM 36.6°F2.6°C 23.6°F-4.7°C 59% 3.0 mph W4.8 kmh W 10.0 mph16.1 kmh 30.06 in1017.9 mb 0.00 in0.0 mm 0.00 in0.0 mm 0.00 in0.0 mm
06:19 PM 36.6°F2.6°C 23.6°F-4.7°C 59% 2.0 mph W3.2 kmh W 12.0 mph19.3 kmh 30.06 in1017.9 mb 0.00 in0.0 mm 0.00 in0.0 mm 0.00 in0.0 mm
06:21 PM 36.6°F2.6°C 23.6°F-4.7°C 59% 7.0 mph W11.3 kmh W 12.0 mph19.3 kmh 30.06 in1017.9 mb 0.00 in0.0 mm 0.00 in0.0 mm 0.00 in0.0 mm
06:23 PM 36.7°F2.6°C 23.7°F-4.6°C 59% 3.0 mph W4.8 kmh W 12.0 mph19.3 kmh 30.06 in1017.9 mb 0.00 in0.0 mm 0.00 in0.0 mm 0.00 in0.0 mm
06:25 PM 36.6°F2.6°C 23.6°F-4.7°C 59% 3.0 mph WSW4.8 kmh WSW 12.0 mph19.3 kmh 30.06 in1017.9 mb 0.00 in0.0 mm 0.00 in0.0 mm 0.00 in0.0 mm
06:27 PM 36.6°F2.6°C 23.6°F-4.7°C 59% 2.0 mph W3.2 kmh W 12.0 mph19.3 kmh 30.06 in1017.9 mb 0.00 in0.0 mm 0.00 in0.0 mm 0.00 in0.0 mm
06:29 PM 36.5°F2.5°C 24.0°F-4.4°C 60% 3.0 mph WSW4.8 kmh WSW 12.0 mph19.3 kmh 30.06 in1017.9 mb 0.00 in0.0 mm 0.00 in0.0 mm 0.00 in0.0 mm
06:31 PM 36.4°F2.4°C 23.9°F-4.5°C 60% 2.0 mph W3.2 kmh W 12.0 mph19.3 kmh 30.06 in1017.9 mb 0.00 in0.0 mm 0.00 in0.0 mm 0.00 in0.0 mm
06:33 PM 36.2°F2.3°C 23.7°F-4.6°C 60% 4.0 mph W6.4 kmh W 12.0 mph19.3 kmh 30.06 in1017.9 mb 0.00 in0.0 mm 0.00 in0.0 mm 0.00 in0.0 mm
06:35 PM 36.1°F2.3°C 23.6°F-4.7°C 60% 2.0 mph SW3.2 kmh SW 12.0 mph19.3 kmh 30.06 in1017.9 mb 0.00 in0.0 mm 0.00 in0.0 mm 0.00 in0.0 mm
06:37 PM 36.0°F2.2°C 23.5°F-4.7°C 60% 2.0 mph W3.2 kmh W 12.0 mph19.3 kmh 30.06 in1017.9 mb 0.00 in0.0 mm 0.00 in0.0 mm 0.00 in0.0 mm
06:39 PM 35.9°F2.2°C 23.8°F-4.6°C 61% 2.0 mph W3.2 kmh W 6.0 mph9.7 kmh 30.06 in1017.9 mb 0.00 in0.0 mm 0.00 in0.0 mm 0.00 in0.0 mm
06:41 PM 35.8°F2.1°C 23.7°F-4.6°C 61% 2.0 mph W3.2 kmh W 6.0 mph9.7 kmh 30.06 in1017.9 mb 0.00 in0.0 mm 0.00 in0.0 mm 0.00 in0.0 mm
06:43 PM 35.7°F2.1°C 23.6°F-4.7°C 61% 4.0 mph WSW6.4 kmh WSW 7.0 mph11.3 kmh 30.07 in1018.3 mb 0.00 in0.0 mm 0.00 in0.0 mm 0.00 in0.0 mm
06:45 PM 35.7°F2.1°C 23.6°F-4.7°C 61% 2.0 mph WNW3.2 kmh WNW 7.0 mph11.3 kmh 30.07 in1018.3 mb 0.00 in0.0 mm 0.00 in0.0 mm 0.00 in0.0 mm
06:47 PM 35.6°F2.0°C 23.9°F-4.5°C 62% 2.0 mph W3.2 kmh W 7.0 mph11.3 kmh 30.07 in1018.3 mb 0.00 in0.0 mm 0.00 in0.0 mm 0.00 in0.0 mm
06:49 PM 35.6°F2.0°C 23.9°F-4.5°C 62% 4.0 mph SW6.4 kmh SW 7.0 mph11.3 kmh 30.07 in1018.3 mb 0.00 in0.0 mm 0.00 in0.0 mm 0.00 in0.0 mm
06:51 PM 35.6°F2.0°C 23.9°F-4.5°C 62% 2.0 mph WSW3.2 kmh WSW 7.0 mph11.3 kmh 30.07 in1018.3 mb 0.00 in0.0 mm 0.00 in0.0 mm 0.00 in0.0 mm
06:53 PM 35.5°F1.9°C 23.8°F-4.6°C 62% 2.0 mph WSW3.2 kmh WSW 8.0 mph12.9 kmh 30.07 in1018.3 mb 0.00 in0.0 mm 0.00 in0.0 mm 0.00 in0.0 mm
06:55 PM 35.4°F1.9°C 23.7°F-4.6°C 62% 2.0 mph WSW3.2 kmh WSW 8.0 mph12.9 kmh 30.07 in1018.3 mb 0.00 in0.0 mm 0.00 in0.0 mm 0.00 in0.0 mm
06:57 PM 35.4°F1.9°C 23.7°F-4.6°C 62% 4.0 mph WNW6.4 kmh WNW 8.0 mph12.9 kmh 30.07 in1018.3 mb 0.00 in0.0 mm 0.00 in0.0 mm 0.00 in0.0 mm
06:59 PM 35.4°F1.9°C 23.7°F-4.6°C 62% 3.0 mph W4.8 kmh W 8.0 mph12.9 kmh 30.07 in1018.3 mb 0.00 in0.0 mm 0.00 in0.0 mm 0.00 in0.0 mm
07:01 PM 35.4°F1.9°C 24.1°F-4.4°C 63% 1.0 mph WSW1.6 kmh WSW 8.0 mph12.9 kmh 30.07 in1018.3 mb 0.00 in0.0 mm 0.00 in0.0 mm 0.00 in0.0 mm
07:03 PM 35.3°F1.8°C 23.6°F-4.7°C 62% 4.0 mph W6.4 kmh W 8.0 mph12.9 kmh 30.07 in1018.3 mb 0.00 in0.0 mm 0.00 in0.0 mm 0.00 in0.0 mm
07:05 PM 35.4°F1.9°C 23.7°F-4.6°C 62% 3.0 mph W4.8 kmh W 8.0 mph12.9 kmh 30.07 in1018.3 mb 0.00 in0.0 mm 0.00 in0.0 mm 0.00 in0.0 mm
07:07 PM 35.5°F1.9°C 23.8°F-4.6°C 62% 2.0 mph W3.2 kmh W 8.0 mph12.9 kmh 30.07 in1018.3 mb 0.00 in0.0 mm 0.00 in0.0 mm 0.00 in0.0 mm
07:09 PM 35.5°F1.9°C 23.8°F-4.6°C 62% 3.0 mph W4.8 kmh W 8.0 mph12.9 kmh 30.08 in1018.6 mb 0.00 in0.0 mm 0.00 in0.0 mm 0.00 in0.0 mm
07:11 PM 35.5°F1.9°C 23.8°F-4.6°C 62% 2.0 mph W3.2 kmh W 8.0 mph12.9 kmh 30.07 in1018.3 mb 0.00 in0.0 mm 0.00 in0.0 mm 0.00 in0.0 mm
07:13 PM 35.5°F1.9°C 23.8°F-4.6°C 62% 2.0 mph W3.2 kmh W 7.0 mph11.3 kmh 30.08 in1018.6 mb 0.00 in0.0 mm 0.00 in0.0 mm 0.00 in0.0 mm
07:15 PM 35.6°F2.0°C 23.9°F-4.5°C 62% 4.0 mph WNW6.4 kmh WNW 7.0 mph11.3 kmh 30.08 in1018.6 mb 0.00 in0.0 mm 0.00 in0.0 mm 0.00 in0.0 mm
07:17 PM 35.5°F1.9°C 23.8°F-4.6°C 62% 2.0 mph W3.2 kmh W 7.0 mph11.3 kmh 30.08 in1018.6 mb 0.00 in0.0 mm 0.00 in0.0 mm 0.00 in0.0 mm
07:19 PM 35.5°F1.9°C 23.8°F-4.6°C 62% 2.0 mph W3.2 kmh W 7.0 mph11.3 kmh 30.08 in1018.6 mb 0.00 in0.0 mm 0.00 in0.0 mm 0.00 in0.0 mm
07:21 PM 35.4°F1.9°C 24.1°F-4.4°C 63% 4.0 mph W6.4 kmh W 7.0 mph11.3 kmh 30.08 in1018.6 mb 0.00 in0.0 mm 0.00 in0.0 mm 0.00 in0.0 mm
07:23 PM 35.5°F1.9°C 23.8°F-4.6°C 62% 2.0 mph WSW3.2 kmh WSW 10.0 mph16.1 kmh 30.08 in1018.6 mb 0.00 in0.0 mm 0.00 in0.0 mm 0.00 in0.0 mm
07:25 PM 35.5°F1.9°C 23.8°F-4.6°C 62% 2.0 mph WNW3.2 kmh WNW 10.0 mph16.1 kmh 30.08 in1018.6 mb 0.00 in0.0 mm 0.00 in0.0 mm 0.00 in0.0 mm
07:27 PM 35.5°F1.9°C 23.8°F-4.6°C 62% 4.0 mph W6.4 kmh W 10.0 mph16.1 kmh 30.08 in1018.6 mb 0.00 in0.0 mm 0.00 in0.0 mm 0.00 in0.0 mm
07:29 PM 35.6°F2.0°C 23.9°F-4.5°C 62% 7.0 mph W11.3 kmh W 10.0 mph16.1 kmh 30.08 in1018.6 mb 0.00 in0.0 mm 0.00 in0.0 mm 0.00 in0.0 mm
07:31 PM 35.7°F2.1°C 24.0°F-4.4°C 62% 4.0 mph W6.4 kmh W 10.0 mph16.1 kmh 30.08 in1018.6 mb 0.00 in0.0 mm 0.00 in0.0 mm 0.00 in0.0 mm
07:33 PM 35.7°F2.1°C 24.0°F-4.4°C 62% 4.0 mph W6.4 kmh W 10.0 mph16.1 kmh 30.08 in1018.6 mb 0.00 in0.0 mm 0.00 in0.0 mm 0.00 in0.0 mm
07:35 PM 35.8°F2.1°C 24.1°F-4.4°C 62% 4.0 mph W6.4 kmh W 10.0 mph16.1 kmh 30.08 in1018.6 mb 0.00 in0.0 mm 0.00 in0.0 mm 0.00 in0.0 mm
07:37 PM 35.9°F2.2°C 23.8°F-4.6°C 61% 4.0 mph W6.4 kmh W 10.0 mph16.1 kmh 30.08 in1018.6 mb 0.00 in0.0 mm 0.00 in0.0 mm 0.00 in0.0 mm
07:39 PM 35.9°F2.2°C 24.2°F-4.3°C 62% 3.0 mph W4.8 kmh W 10.0 mph16.1 kmh 30.08 in1018.6 mb 0.00 in0.0 mm 0.00 in0.0 mm 0.00 in0.0 mm
07:41 PM 36.0°F2.2°C 23.9°F-4.5°C 61% 7.0 mph WSW11.3 kmh WSW 10.0 mph16.1 kmh 30.08 in1018.6 mb 0.00 in0.0 mm 0.00 in0.0 mm 0.00 in0.0 mm
07:43 PM 36.0°F2.2°C 23.9°F-4.5°C 61% 3.0 mph W4.8 kmh W 10.0 mph16.1 kmh 30.08 in1018.6 mb 0.00 in0.0 mm 0.00 in0.0 mm 0.00 in0.0 mm
07:45 PM 36.0°F2.2°C 23.9°F-4.5°C 61% 2.0 mph WSW3.2 kmh WSW 11.0 mph17.7 kmh 30.08 in1018.6 mb 0.00 in0.0 mm 0.00 in0.0 mm 0.00 in0.0 mm
07:47 PM 36.1°F2.3°C 24.0°F-4.4°C 61% 3.0 mph W4.8 kmh W 11.0 mph17.7 kmh 30.08 in1018.6 mb 0.00 in0.0 mm 0.00 in0.0 mm 0.00 in0.0 mm
07:49 PM 36.1°F2.3°C 24.0°F-4.4°C 61% 4.0 mph SW6.4 kmh SW 11.0 mph17.7 kmh 30.08 in1018.6 mb 0.00 in0.0 mm 0.00 in0.0 mm 0.00 in0.0 mm
07:51 PM 36.2°F2.3°C 24.1°F-4.4°C 61% 2.0 mph WSW3.2 kmh WSW 11.0 mph17.7 kmh 30.09 in1019.0 mb 0.00 in0.0 mm 0.00 in0.0 mm 0.00 in0.0 mm
07:53 PM 36.2°F2.3°C 24.1°F-4.4°C 61% 1.0 mph WNW1.6 kmh WNW 11.0 mph17.7 kmh 30.09 in1019.0 mb 0.00 in0.0 mm 0.00 in0.0 mm 0.00 in0.0 mm
07:55 PM 36.2°F2.3°C 24.1°F-4.4°C 61% 3.0 mph WNW4.8 kmh WNW 11.0 mph17.7 kmh 30.09 in1019.0 mb 0.00 in0.0 mm 0.00 in0.0 mm 0.00 in0.0 mm
07:57 PM 36.2°F2.3°C 24.1°F-4.4°C 61% 2.0 mph W3.2 kmh W 11.0 mph17.7 kmh 30.09 in1019.0 mb 0.00 in0.0 mm 0.00 in0.0 mm 0.00 in0.0 mm
07:59 PM 36.1°F2.3°C 24.4°F-4.2°C 62% 1.0 mph WSW1.6 kmh WSW 11.0 mph17.7 kmh 30.09 in1019.0 mb 0.00 in0.0 mm 0.00 in0.0 mm 0.00 in0.0 mm
08:01 PM 36.1°F2.3°C 24.4°F-4.2°C 62% 2.0 mph W3.2 kmh W 11.0 mph17.7 kmh 30.09 in1019.0 mb 0.00 in0.0 mm 0.00 in0.0 mm 0.00 in0.0 mm
08:03 PM 36.1°F2.3°C 24.4°F-4.2°C 62% 5.0 mph WSW8.0 kmh WSW 11.0 mph17.7 kmh 30.09 in1019.0 mb 0.00 in0.0 mm 0.00 in0.0 mm 0.00 in0.0 mm
08:05 PM 36.1°F2.3°C 24.0°F-4.4°C 61% 2.0 mph W3.2 kmh W 9.0 mph14.5 kmh 30.09 in1019.0 mb 0.00 in0.0 mm 0.00 in0.0 mm 0.00 in0.0 mm
08:07 PM 36.1°F2.3°C 24.0°F-4.4°C 61% 3.0 mph WSW4.8 kmh WSW 9.0 mph14.5 kmh 30.09 in1019.0 mb 0.00 in0.0 mm 0.00 in0.0 mm 0.00 in0.0 mm
08:09 PM 36.2°F2.3°C 24.1°F-4.4°C 61% 2.0 mph W3.2 kmh W 9.0 mph14.5 kmh 30.09 in1019.0 mb 0.00 in0.0 mm 0.00 in0.0 mm 0.00 in0.0 mm
08:11 PM 36.2°F2.3°C 24.1°F-4.4°C 61% 3.0 mph W4.8 kmh W 9.0 mph14.5 kmh 30.09 in1019.0 mb 0.00 in0.0 mm 0.00 in0.0 mm 0.00 in0.0 mm
08:13 PM 36.2°F2.3°C 24.1°F-4.4°C 61% 3.0 mph W4.8 kmh W 9.0 mph14.5 kmh 30.09 in1019.0 mb 0.00 in0.0 mm 0.00 in0.0 mm 0.00 in0.0 mm
08:15 PM 36.2°F2.3°C 24.1°F-4.4°C 61% 2.0 mph W3.2 kmh W 9.0 mph14.5 kmh 30.09 in1019.0 mb 0.00 in0.0 mm 0.00 in0.0 mm 0.00 in0.0 mm
08:17 PM 36.2°F2.3°C 24.1°F-4.4°C 61% 2.0 mph WNW3.2 kmh WNW 9.0 mph14.5 kmh 30.09 in1019.0 mb 0.00 in0.0 mm 0.00 in0.0 mm 0.00 in0.0 mm
08:19 PM 36.2°F2.3°C 24.1°F-4.4°C 61% 4.0 mph WSW6.4 kmh WSW 9.0 mph14.5 kmh 30.09 in1019.0 mb 0.00 in0.0 mm 0.00 in0.0 mm 0.00 in0.0 mm
08:21 PM 36.2°F2.3°C 24.1°F-4.4°C 61% 3.0 mph W4.8 kmh W 9.0 mph14.5 kmh 30.09 in1019.0 mb 0.00 in0.0 mm 0.00 in0.0 mm 0.00 in0.0 mm
08:23 PM 36.2°F2.3°C 24.1°F-4.4°C 61% 2.0 mph W3.2 kmh W 9.0 mph14.5 kmh 30.09 in1019.0 mb 0.00 in0.0 mm 0.00 in0.0 mm 0.00 in0.0 mm
08:25 PM 36.2°F2.3°C 24.5°F-4.2°C 62% 2.0 mph W3.2 kmh W 9.0 mph14.5 kmh 30.09 in1019.0 mb 0.00 in0.0 mm 0.00 in0.0 mm 0.00 in0.0 mm
08:27 PM 36.1°F2.3°C 24.0°F-4.4°C 61% 4.0 mph WNW6.4 kmh WNW 9.0 mph14.5 kmh 30.09 in1019.0 mb 0.00 in0.0 mm 0.00 in0.0 mm 0.00 in0.0 mm
08:29 PM 36.1°F2.3°C 24.0°F-4.4°C 61% 5.0 mph SW8.0 kmh SW 7.0 mph11.3 kmh 30.09 in1019.0 mb 0.00 in0.0 mm 0.00 in0.0 mm 0.00 in0.0 mm
08:31 PM 36.1°F2.3°C 24.0°F-4.4°C 61% 4.0 mph W6.4 kmh W 7.0 mph11.3 kmh 30.09 in1019.0 mb 0.00 in0.0 mm 0.00 in0.0 mm 0.00 in0.0 mm
08:33 PM 36.1°F2.3°C 24.0°F-4.4°C 61% 2.0 mph WSW3.2 kmh WSW 7.0 mph11.3 kmh 30.09 in1019.0 mb 0.00 in0.0 mm 0.00 in0.0 mm 0.00 in0.0 mm
08:35 PM 36.1°F2.3°C 24.0°F-4.4°C 61% 3.0 mph WNW4.8 kmh WNW 7.0 mph11.3 kmh 30.09 in1019.0 mb 0.00 in0.0 mm 0.00 in0.0 mm 0.00 in0.0 mm
08:37 PM 36.1°F2.3°C 24.0°F-4.4°C 61% 1.0 mph WSW1.6 kmh WSW 7.0 mph11.3 kmh 30.09 in1019.0 mb 0.00 in0.0 mm 0.00 in0.0 mm 0.00 in0.0 mm
08:39 PM 36.0°F2.2°C 23.9°F-4.5°C 61% 3.0 mph W4.8 kmh W 7.0 mph11.3 kmh 30.09 in1019.0 mb 0.00 in0.0 mm 0.00 in0.0 mm 0.00 in0.0 mm
08:41 PM 35.9°F2.2°C 24.2°F-4.3°C 62% 4.0 mph W6.4 kmh W 7.0 mph11.3 kmh 30.09 in1019.0 mb 0.00 in0.0 mm 0.00 in0.0 mm 0.00 in0.0 mm
08:43 PM 35.8°F2.1°C 24.1°F-4.4°C 62% 2.0 mph W3.2 kmh W 7.0 mph11.3 kmh 30.10 in1019.3 mb 0.00 in0.0 mm 0.00 in0.0 mm 0.00 in0.0 mm
08:45 PM 35.7°F2.1°C 24.0°F-4.4°C 62% 2.0 mph WSW3.2 kmh WSW 7.0 mph11.3 kmh 30.09 in1019.0 mb 0.00 in0.0 mm 0.00 in0.0 mm 0.00 in0.0 mm
08:47 PM 35.6°F2.0°C 23.9°F-4.5°C 62% 2.0 mph WNW3.2 kmh WNW 7.0 mph11.3 kmh 30.10 in1019.3 mb 0.00 in0.0 mm 0.00 in0.0 mm 0.00 in0.0 mm
08:49 PM 35.5°F1.9°C 24.2°F-4.3°C 63% 2.0 mph SW3.2 kmh SW 7.0 mph11.3 kmh 30.10 in1019.3 mb 0.00 in0.0 mm 0.00 in0.0 mm 0.00 in0.0 mm
08:51 PM 35.3°F1.8°C 24.0°F-4.4°C 63% 2.0 mph W3.2 kmh W 7.0 mph11.3 kmh 30.10 in1019.3 mb 0.00 in0.0 mm 0.00 in0.0 mm 0.00 in0.0 mm
08:53 PM 35.3°F1.8°C 24.0°F-4.4°C 63% 1.0 mph W1.6 kmh W 7.0 mph11.3 kmh 30.10 in1019.3 mb 0.00 in0.0 mm 0.00 in0.0 mm 0.00 in0.0 mm
08:55 PM 35.2°F1.8°C 24.3°F-4.3°C 64% 3.0 mph S4.8 kmh S 7.0 mph11.3 kmh 30.10 in1019.3 mb 0.00 in0.0 mm 0.00 in0.0 mm 0.00 in0.0 mm
08:57 PM 35.2°F1.8°C 24.3°F-4.3°C 64% 3.0 mph WSW4.8 kmh WSW 7.0 mph11.3 kmh 30.10 in1019.3 mb 0.00 in0.0 mm 0.00 in0.0 mm 0.00 in0.0 mm
08:59 PM 35.2°F1.8°C 24.3°F-4.3°C 64% 2.0 mph WNW3.2 kmh WNW 7.0 mph11.3 kmh 30.10 in1019.3 mb 0.00 in0.0 mm 0.00 in0.0 mm 0.00 in0.0 mm
09:01 PM 35.2°F1.8°C 24.3°F-4.3°C 64% 4.0 mph W6.4 kmh W 8.0 mph12.9 kmh 30.10 in1019.3 mb 0.00 in0.0 mm 0.00 in0.0 mm 0.00 in0.0 mm
09:03 PM 35.2°F1.8°C 24.3°F-4.3°C 64% 4.0 mph NW6.4 kmh NW 8.0 mph12.9 kmh 30.10 in1019.3 mb 0.00 in0.0 mm 0.00 in0.0 mm 0.00 in0.0 mm
09:05 PM 35.3°F1.8°C 24.4°F-4.2°C 64% 3.0 mph W4.8 kmh W 8.0 mph12.9 kmh 30.10 in1019.3 mb 0.00 in0.0 mm 0.00 in0.0 mm 0.00 in0.0 mm
09:07 PM 35.3°F1.8°C 24.4°F-4.2°C 64% 3.0 mph NW4.8 kmh NW 8.0 mph12.9 kmh 30.10 in1019.3 mb 0.00 in0.0 mm 0.00 in0.0 mm 0.00 in0.0 mm
09:09 PM 35.3°F1.8°C 24.4°F-4.2°C 64% 3.0 mph W4.8 kmh W 8.0 mph12.9 kmh 30.10 in1019.3 mb 0.00 in0.0 mm 0.00 in0.0 mm 0.00 in0.0 mm
09:11 PM 35.3°F1.8°C 24.4°F-4.2°C 64% 3.0 mph NW4.8 kmh NW 8.0 mph12.9 kmh 30.10 in1019.3 mb 0.00 in0.0 mm 0.00 in0.0 mm 0.00 in0.0 mm
09:13 PM 35.3°F1.8°C 24.4°F-4.2°C 64% 6.0 mph W9.7 kmh W 8.0 mph12.9 kmh 30.10 in1019.3 mb 0.00 in0.0 mm 0.00 in0.0 mm 0.00 in0.0 mm
09:15 PM 35.3°F1.8°C 24.0°F-4.4°C 63% 2.0 mph W3.2 kmh W 13.0 mph20.9 kmh 30.10 in1019.3 mb 0.00 in0.0 mm 0.00 in0.0 mm 0.00 in0.0 mm
09:17 PM 35.3°F1.8°C 24.0°F-4.4°C 63% 2.0 mph WSW3.2 kmh WSW 13.0 mph20.9 kmh 30.10 in1019.3 mb 0.00 in0.0 mm 0.00 in0.0 mm 0.00 in0.0 mm
09:19 PM 35.3°F1.8°C 24.0°F-4.4°C 63% 4.0 mph W6.4 kmh W 13.0 mph20.9 kmh 30.10 in1019.3 mb 0.00 in0.0 mm 0.00 in0.0 mm 0.00 in0.0 mm
09:21 PM 35.3°F1.8°C 24.0°F-4.4°C 63% 2.0 mph WNW3.2 kmh WNW 13.0 mph20.9 kmh 30.10 in1019.3 mb 0.00 in0.0 mm 0.00 in0.0 mm 0.00 in0.0 mm
09:23 PM 35.2°F1.8°C 24.3°F-4.3°C 64% 2.0 mph W3.2 kmh W 13.0 mph20.9 kmh 30.10 in1019.3 mb 0.00 in0.0 mm 0.00 in0.0 mm 0.00 in0.0 mm
09:25 PM 35.2°F1.8°C 23.9°F-4.5°C 63% 2.0 mph WNW3.2 kmh WNW 13.0 mph20.9 kmh 30.11 in1019.6 mb 0.00 in0.0 mm 0.00 in0.0 mm 0.00 in0.0 mm
09:27 PM 35.1°F1.7°C 24.2°F-4.3°C 64% 4.0 mph NW6.4 kmh NW 13.0 mph20.9 kmh 30.11 in1019.6 mb 0.00 in0.0 mm 0.00 in0.0 mm 0.00 in0.0 mm
09:29 PM 35.0°F1.7°C 24.1°F-4.4°C 64% 4.0 mph NW6.4 kmh NW 13.0 mph20.9 kmh 30.11 in1019.6 mb 0.00 in0.0 mm 0.00 in0.0 mm 0.00 in0.0 mm
09:31 PM 34.9°F1.6°C 24.0°F-4.4°C 64% 3.0 mph NW4.8 kmh NW 13.0 mph20.9 kmh 30.11 in1019.6 mb 0.00 in0.0 mm 0.00 in0.0 mm 0.00 in0.0 mm
09:33 PM 34.8°F1.6°C 23.9°F-4.5°C 64% 3.0 mph W4.8 kmh W 13.0 mph20.9 kmh 30.11 in1019.6 mb 0.00 in0.0 mm 0.00 in0.0 mm 0.00 in0.0 mm
09:35 PM 34.7°F1.5°C 23.8°F-4.6°C 64% 4.0 mph WNW6.4 kmh WNW 13.0 mph20.9 kmh 30.11 in1019.6 mb 0.00 in0.0 mm 0.00 in0.0 mm 0.00 in0.0 mm
09:37 PM 34.7°F1.5°C 23.8°F-4.6°C 64% 5.0 mph WNW8.0 kmh WNW 13.0 mph20.9 kmh 30.11 in1019.6 mb 0.00 in0.0 mm 0.00 in0.0 mm 0.00 in0.0 mm
09:39 PM 34.6°F1.4°C 23.7°F-4.6°C 64% 4.0 mph W6.4 kmh W 13.0 mph20.9 kmh 30.11 in1019.6 mb 0.00 in0.0 mm 0.00 in0.0 mm 0.00 in0.0 mm
09:41 PM 34.6°F1.4°C 24.1°F-4.4°C 65% 6.0 mph W9.7 kmh W 13.0 mph20.9 kmh 30.11 in1019.6 mb 0.00 in0.0 mm 0.00 in0.0 mm 0.00 in0.0 mm
09:43 PM 34.5°F1.4°C 23.6°F-4.7°C 64% 4.0 mph WNW6.4 kmh WNW 13.0 mph20.9 kmh 30.11 in1019.6 mb 0.00 in0.0 mm 0.00 in0.0 mm 0.00 in0.0 mm
09:45 PM 34.4°F1.3°C 23.9°F-4.5°C 65% 4.0 mph WNW6.4 kmh WNW 10.0 mph16.1 kmh 30.11 in1019.6 mb 0.00 in0.0 mm 0.00 in0.0 mm 0.00 in0.0 mm
09:47 PM 34.4°F1.3°C 23.5°F-4.7°C 64% 3.0 mph WSW4.8 kmh WSW 13.0 mph20.9 kmh 30.11 in1019.6 mb 0.00 in0.0 mm 0.00 in0.0 mm 0.00 in0.0 mm
09:49 PM 34.5°F1.4°C 23.6°F-4.7°C 64% 8.0 mph W12.9 kmh W 13.0 mph20.9 kmh 30.11 in1019.6 mb 0.00 in0.0 mm 0.00 in0.0 mm 0.00 in0.0 mm
09:51 PM 34.6°F1.4°C 23.7°F-4.6°C 64% 2.0 mph W3.2 kmh W 13.0 mph20.9 kmh 30.11 in1019.6 mb 0.00 in0.0 mm 0.00 in0.0 mm 0.00 in0.0 mm
09:53 PM 34.6°F1.4°C 24.1°F-4.4°C 65% 3.0 mph WSW4.8 kmh WSW 13.0 mph20.9 kmh 30.11 in1019.6 mb 0.00 in0.0 mm 0.00 in0.0 mm 0.00 in0.0 mm
09:55 PM 34.5°F1.4°C 24.0°F-4.4°C 65% 3.0 mph WNW4.8 kmh WNW 13.0 mph20.9 kmh 30.11 in1019.6 mb 0.00 in0.0 mm 0.00 in0.0 mm 0.00 in0.0 mm
09:57 PM 34.4°F1.3°C 23.9°F-4.5°C 65% 3.0 mph NW4.8 kmh NW 13.0 mph20.9 kmh 30.10 in1019.3 mb 0.00 in0.0 mm 0.00 in0.0 mm 0.00 in0.0 mm
09:59 PM 34.3°F1.3°C 23.8°F-4.6°C 65% 3.0 mph WNW4.8 kmh WNW 13.0 mph20.9 kmh 30.10 in1019.3 mb 0.00 in0.0 mm 0.00 in0.0 mm 0.00 in0.0 mm
10:01 PM 34.2°F1.2°C 23.7°F-4.6°C 65% 2.0 mph NW3.2 kmh NW 13.0 mph20.9 kmh 30.10 in1019.3 mb 0.00 in0.0 mm 0.00 in0.0 mm 0.00 in0.0 mm
10:03 PM 34.1°F1.2°C 23.6°F-4.7°C 65% 3.0 mph WSW4.8 kmh WSW 13.0 mph20.9 kmh 30.10 in1019.3 mb 0.00 in0.0 mm 0.00 in0.0 mm 0.00 in0.0 mm
10:05 PM 34.1°F1.2°C 23.9°F-4.5°C 66% 3.0 mph NW4.8 kmh NW 13.0 mph20.9 kmh 30.11 in1019.6 mb 0.00 in0.0 mm 0.00 in0.0 mm 0.00 in0.0 mm
10:07 PM 34.0°F1.1°C 23.9°F-4.5°C 66% 3.0 mph WSW4.8 kmh WSW 7.0 mph11.3 kmh 30.11 in1019.6 mb 0.00 in0.0 mm 0.00 in0.0 mm 0.00 in0.0 mm
10:09 PM 34.0°F1.1°C 23.9°F-4.5°C 66% 2.0 mph WNW3.2 kmh WNW 7.0 mph11.3 kmh 30.11 in1019.6 mb 0.00 in0.0 mm 0.00 in0.0 mm 0.00 in0.0 mm
10:11 PM 33.9°F1.1°C 23.4°F-4.8°C 65% 2.0 mph WNW3.2 kmh WNW 11.0 mph17.7 kmh 30.11 in1019.6 mb 0.00 in0.0 mm 0.00 in0.0 mm 0.00 in0.0 mm
10:13 PM 33.9°F1.1°C 23.8°F-4.6°C 66% 7.0 mph WNW11.3 kmh WNW 11.0 mph17.7 kmh 30.11 in1019.6 mb 0.00 in0.0 mm 0.00 in0.0 mm 0.00 in0.0 mm
10:15 PM 33.9°F1.1°C 23.8°F-4.6°C 66% 2.0 mph WNW3.2 kmh WNW 11.0 mph17.7 kmh 30.10 in1019.3 mb 0.00 in0.0 mm 0.00 in0.0 mm 0.00 in0.0 mm
10:17 PM 33.9°F1.1°C 23.8°F-4.6°C 66% 6.0 mph W9.7 kmh W 11.0 mph17.7 kmh 30.11 in1019.6 mb 0.00 in0.0 mm 0.00 in0.0 mm 0.00 in0.0 mm
10:19 PM 34.0°F1.1°C 23.9°F-4.5°C 66% 7.0 mph W11.3 kmh W 11.0 mph17.7 kmh 30.10 in1019.3 mb 0.00 in0.0 mm 0.00 in0.0 mm 0.00 in0.0 mm
10:21 PM 34.0°F1.1°C 23.9°F-4.5°C 66% 3.0 mph WNW4.8 kmh WNW 11.0 mph17.7 kmh 30.11 in1019.6 mb 0.00 in0.0 mm 0.00 in0.0 mm 0.00 in0.0 mm
10:23 PM 34.0°F1.1°C 23.9°F-4.5°C 66% 2.0 mph NW3.2 kmh NW 11.0 mph17.7 kmh 30.11 in1019.6 mb 0.00 in0.0 mm 0.00 in0.0 mm 0.00 in0.0 mm
10:25 PM 34.0°F1.1°C 23.9°F-4.5°C 66% 3.0 mph WNW4.8 kmh WNW 11.0 mph17.7 kmh 30.11 in1019.6 mb 0.00 in0.0 mm 0.00 in0.0 mm 0.00 in0.0 mm
10:27 PM 33.9°F1.1°C 23.4°F-4.8°C 65% 5.0 mph WNW8.0 kmh WNW 11.0 mph17.7 kmh 30.11 in1019.6 mb 0.00 in0.0 mm 0.00 in0.0 mm 0.00 in0.0 mm
10:29 PM 33.9°F1.1°C 23.8°F-4.6°C 66% 2.0 mph WNW3.2 kmh WNW 11.0 mph17.7 kmh 30.11 in1019.6 mb 0.00 in0.0 mm 0.00 in0.0 mm 0.00 in0.0 mm
10:31 PM 33.8°F1.0°C 23.7°F-4.6°C 66% 5.0 mph NW8.0 kmh NW 9.0 mph14.5 kmh 30.11 in1019.6 mb 0.00 in0.0 mm 0.00 in0.0 mm 0.00 in0.0 mm
10:33 PM 33.7°F0.9°C 23.6°F-4.7°C 66% 7.0 mph W11.3 kmh W 9.0 mph14.5 kmh 30.11 in1019.6 mb 0.00 in0.0 mm 0.00 in0.0 mm 0.00 in0.0 mm
10:35 PM 33.7°F0.9°C 23.6°F-4.7°C 66% 4.0 mph NW6.4 kmh NW 9.0 mph14.5 kmh 30.11 in1019.6 mb 0.00 in0.0 mm 0.00 in0.0 mm 0.00 in0.0 mm
10:37 PM 33.7°F0.9°C 23.6°F-4.7°C 66% 1.0 mph W1.6 kmh W 9.0 mph14.5 kmh 30.11 in1019.6 mb 0.00 in0.0 mm 0.00 in0.0 mm 0.00 in0.0 mm
10:39 PM 33.6°F0.9°C 23.8°F-4.6°C 67% 2.0 mph W3.2 kmh W 9.0 mph14.5 kmh 30.11 in1019.6 mb 0.00 in0.0 mm 0.00 in0.0 mm 0.00 in0.0 mm
10:41 PM 33.5°F0.8°C 23.7°F-4.6°C 67% 3.0 mph W4.8 kmh W 9.0 mph14.5 kmh 30.11 in1019.6 mb 0.00 in0.0 mm 0.00 in0.0 mm 0.00 in0.0 mm
10:43 PM 33.5°F0.8°C 23.4°F-4.8°C 66% 5.0 mph SW8.0 kmh SW 10.0 mph16.1 kmh 30.11 in1019.6 mb 0.00 in0.0 mm 0.00 in0.0 mm 0.00 in0.0 mm
10:45 PM 33.5°F0.8°C 23.7°F-4.6°C 67% 2.0 mph WNW3.2 kmh WNW 10.0 mph16.1 kmh 30.11 in1019.6 mb 0.00 in0.0 mm 0.00 in0.0 mm 0.00 in0.0 mm
10:47 PM 33.4°F0.8°C 23.6°F-4.7°C 67% 1.0 mph S1.6 kmh S 10.0 mph16.1 kmh 30.11 in1019.6 mb 0.00 in0.0 mm 0.00 in0.0 mm 0.00 in0.0 mm
10:49 PM 33.3°F0.7°C 23.5°F-4.7°C 67% 1.0 mph WNW1.6 kmh WNW 10.0 mph16.1 kmh 30.11 in1019.6 mb 0.00 in0.0 mm 0.00 in0.0 mm 0.00 in0.0 mm
10:51 PM 33.3°F0.7°C 23.5°F-4.7°C 67% 2.0 mph W3.2 kmh W 10.0 mph16.1 kmh 30.11 in1019.6 mb 0.00 in0.0 mm 0.00 in0.0 mm 0.00 in0.0 mm
10:53 PM 33.3°F0.7°C 23.5°F-4.7°C 67% 4.0 mph NW6.4 kmh NW 10.0 mph16.1 kmh 30.11 in1019.6 mb 0.00 in0.0 mm 0.00 in0.0 mm 0.00 in0.0 mm
10:55 PM 33.2°F0.7°C 23.4°F-4.8°C 67% 2.0 mph WSW3.2 kmh WSW 10.0 mph16.1 kmh 30.11 in1019.6 mb 0.00 in0.0 mm 0.00 in0.0 mm 0.00 in0.0 mm
10:57 PM 33.2°F0.7°C 23.4°F-4.8°C 67% 1.0 mph W1.6 kmh W 10.0 mph16.1 kmh 30.11 in1019.6 mb 0.00 in0.0 mm 0.00 in0.0 mm 0.00 in0.0 mm
10:59 PM 33.0°F0.6°C 23.3°F-4.8°C 67% 1.0 mph W1.6 kmh W 10.0 mph16.1 kmh 30.11 in1019.6 mb 0.00 in0.0 mm 0.00 in0.0 mm 0.00 in0.0 mm
11:01 PM 32.9°F0.5°C 23.5°F-4.7°C 68% 4.0 mph W6.4 kmh W 10.0 mph16.1 kmh 30.11 in1019.6 mb 0.00 in0.0 mm 0.00 in0.0 mm 0.00 in0.0 mm
11:03 PM 32.8°F0.4°C 23.4°F-4.8°C 68% 1.0 mph W1.6 kmh W 6.0 mph9.7 kmh 30.11 in1019.6 mb 0.00 in0.0 mm 0.00 in0.0 mm 0.00 in0.0 mm
11:05 PM 32.7°F0.4°C 23.3°F-4.8°C 68% 2.0 mph SW3.2 kmh SW 6.0 mph9.7 kmh 30.11 in1019.6 mb 0.00 in0.0 mm 0.00 in0.0 mm 0.00 in0.0 mm
11:07 PM 32.6°F0.3°C 23.2°F-4.9°C 68% 2.0 mph WSW3.2 kmh WSW 8.0 mph12.9 kmh 30.11 in1019.6 mb 0.00 in0.0 mm 0.00 in0.0 mm 0.00 in0.0 mm
11:09 PM 32.5°F0.3°C 23.5°F-4.7°C 69% 2.0 mph W3.2 kmh W 8.0 mph12.9 kmh 30.11 in1019.6 mb 0.00 in0.0 mm 0.00 in0.0 mm 0.00 in0.0 mm
11:11 PM 32.4°F0.2°C 23.4°F-4.8°C 69% 3.0 mph W4.8 kmh W 8.0 mph12.9 kmh 30.11 in1019.6 mb 0.00 in0.0 mm 0.00 in0.0 mm 0.00 in0.0 mm
11:13 PM 32.4°F0.2°C 23.4°F-4.8°C 69% 3.0 mph W4.8 kmh W 8.0 mph12.9 kmh 30.11 in1019.6 mb 0.00 in0.0 mm 0.00 in0.0 mm 0.00 in0.0 mm
11:15 PM 32.4°F0.2°C 23.4°F-4.8°C 69% 3.0 mph W4.8 kmh W 8.0 mph12.9 kmh 30.11 in1019.6 mb 0.00 in0.0 mm 0.00 in0.0 mm 0.00 in0.0 mm
11:17 PM 32.4°F0.2°C 23.4°F-4.8°C 69% 4.0 mph WSW6.4 kmh WSW 8.0 mph12.9 kmh 30.11 in1019.6 mb 0.00 in0.0 mm 0.00 in0.0 mm 0.00 in0.0 mm
11:19 PM 32.4°F0.2°C 23.4°F-4.8°C 69% 3.0 mph W4.8 kmh W 8.0 mph12.9 kmh 30.11 in1019.6 mb 0.00 in0.0 mm 0.00 in0.0 mm 0.00 in0.0 mm
11:21 PM 32.3°F0.2°C 23.3°F-4.8°C 69% 3.0 mph WNW4.8 kmh WNW 8.0 mph12.9 kmh 30.11 in1019.6 mb 0.00 in0.0 mm 0.00 in0.0 mm 0.00 in0.0 mm
11:23 PM 32.3°F0.2°C 23.3°F-4.8°C 69% 2.0 mph W3.2 kmh W 8.0 mph12.9 kmh 30.11 in1019.6 mb 0.00 in0.0 mm 0.00 in0.0 mm 0.00 in0.0 mm
11:25 PM 32.3°F0.2°C 23.3°F-4.8°C 69% 4.0 mph NNW6.4 kmh NNW 8.0 mph12.9 kmh 30.11 in1019.6 mb 0.00 in0.0 mm 0.00 in0.0 mm 0.00 in0.0 mm
11:27 PM 32.4°F0.2°C 23.4°F-4.8°C 69% 1.0 mph W1.6 kmh W 7.0 mph11.3 kmh 30.11 in1019.6 mb 0.00 in0.0 mm 0.00 in0.0 mm 0.00 in0.0 mm
11:29 PM 32.3°F0.2°C 23.3°F-4.8°C 69% 5.0 mph WSW8.0 kmh WSW 7.0 mph11.3 kmh 30.11 in1019.6 mb 0.00 in0.0 mm 0.00 in0.0 mm 0.00 in0.0 mm
11:31 PM 32.3°F0.2°C 23.3°F-4.8°C 69% 2.0 mph W3.2 kmh W 7.0 mph11.3 kmh 30.11 in1019.6 mb 0.00 in0.0 mm 0.00 in0.0 mm 0.00 in0.0 mm
11:33 PM 32.3°F0.2°C 23.3°F-4.8°C 69% 8.0 mph WSW12.9 kmh WSW 9.0 mph14.5 kmh 30.11 in1019.6 mb 0.00 in0.0 mm 0.00 in0.0 mm 0.00 in0.0 mm
11:35 PM 32.4°F0.2°C 23.4°F-4.8°C 69% 9.0 mph WSW14.5 kmh WSW 9.0 mph14.5 kmh 30.11 in1019.6 mb 0.00 in0.0 mm 0.00 in0.0 mm 0.00 in0.0 mm
11:37 PM 32.5°F0.3°C 23.1°F-4.9°C 68% 4.0 mph W6.4 kmh W 10.0 mph16.1 kmh 30.11 in1019.6 mb 0.00 in0.0 mm 0.00 in0.0 mm 0.00 in0.0 mm
11:39 PM 32.6°F0.3°C 23.2°F-4.9°C 68% 4.0 mph S6.4 kmh S 10.0 mph16.1 kmh 30.12 in1020.0 mb 0.00 in0.0 mm 0.00 in0.0 mm 0.00 in0.0 mm
11:41 PM 32.6°F0.3°C 23.2°F-4.9°C 68% 1.0 mph W1.6 kmh W 10.0 mph16.1 kmh 30.12 in1020.0 mb 0.00 in0.0 mm 0.00 in0.0 mm 0.00 in0.0 mm
11:43 PM 32.5°F0.3°C 23.1°F-4.9°C 68% 1.0 mph WNW1.6 kmh WNW 10.0 mph16.1 kmh 30.12 in1020.0 mb 0.00 in0.0 mm 0.00 in0.0 mm 0.00 in0.0 mm
11:45 PM 32.5°F0.3°C 23.1°F-4.9°C 68% 1.0 mph W1.6 kmh W 10.0 mph16.1 kmh 30.12 in1020.0 mb 0.00 in0.0 mm 0.00 in0.0 mm 0.00 in0.0 mm
11:47 PM 32.4°F0.2°C 23.4°F-4.8°C 69% 2.0 mph WSW3.2 kmh WSW 10.0 mph16.1 kmh 30.12 in1020.0 mb 0.00 in0.0 mm 0.00 in0.0 mm 0.00 in0.0 mm
11:49 PM 32.3°F0.2°C 23.3°F-4.8°C 69% 2.0 mph WSW3.2 kmh WSW 10.0 mph16.1 kmh 30.12 in1020.0 mb 0.00 in0.0 mm 0.00 in0.0 mm 0.00 in0.0 mm
11:51 PM 32.3°F0.2°C 23.3°F-4.8°C 69% 3.0 mph WSW4.8 kmh WSW 10.0 mph16.1 kmh 30.12 in1020.0 mb 0.00 in0.0 mm 0.00 in0.0 mm 0.00 in0.0 mm
11:53 PM 32.1°F0.1°C 23.1°F-4.9°C 69% 1.0 mph WSW1.6 kmh WSW 10.0 mph16.1 kmh 30.12 in1020.0 mb 0.00 in0.0 mm 0.00 in0.0 mm 0.00 in0.0 mm
11:55 PM 32.0°F0.0°C 23.3°F-4.8°C 70% 4.0 mph W6.4 kmh W 10.0 mph16.1 kmh 30.12 in1020.0 mb 0.00 in0.0 mm 0.00 in0.0 mm 0.00 in0.0 mm
11:57 PM 31.9°F-0.1°C 23.2°F-4.9°C 70% 1.0 mph W1.6 kmh W 7.0 mph11.3 kmh 30.12 in1020.0 mb 0.00 in0.0 mm 0.00 in0.0 mm 0.00 in0.0 mm
11:59 PM 31.8°F-0.1°C 23.2°F-4.9°C 70% 1.0 mph W1.6 kmh W 7.0 mph11.3 kmh 30.12 in1020.0 mb 0.00 in0.0 mm 0.00 in0.0 mm 0.00 in0.0 mm